Time,TemperatureF,DewpointF,PressureIn,WindDirection,WindDirectionDegrees,WindSpeedMPH,WindSpeedGustMPH,Humidity,HourlyPrecipIn,Conditions,Clouds,dailyrainin,SoftwareType,DateUTC
2013-04-23 00:01:00,38.3,29.7,29.79,SSW,202,0.0,0.0,71,0.00,,---,0.00,VWS V13.01,2013-04-23 04:01:00,
2013-04-23 00:06:00,38.1,29.6,29.79,SE,135,0.0,0.0,71,0.00,,---,0.00,VWS V13.01,2013-04-23 04:06:00,
2013-04-23 00:11:00,38.1,29.6,29.79,SSE,158,0.0,0.0,71,0.00,,---,0.00,VWS V13.01,2013-04-23 04:11:00,
2013-04-23 00:16:00,37.9,29.4,29.79,SE,135,0.0,0.0,71,0.00,,---,0.00,VWS V13.01,2013-04-23 04:16:00,
2013-04-23 00:21:00,37.9,29.4,29.79,South,180,0.0,0.0,71,0.00,,---,0.00,VWS V13.01,2013-04-23 04:21:00,
2013-04-23 00:26:00,37.9,29.4,29.79,SW,225,0.0,0.0,71,0.00,,---,0.00,VWS V13.01,2013-04-23 04:26:00,
2013-04-23 00:27:00,37.9,29.4,29.79,South,180,0.0,0.0,71,0.00,,---,0.00,VWS V13.01,2013-04-23 04:27:00,
2013-04-23 00:31:00,37.9,29.7,29.79,SSE,158,0.0,0.0,72,0.00,,---,0.00,VWS V13.01,2013-04-23 04:31:00,
2013-04-23 00:32:00,37.9,29.7,29.79,SSE,158,0.0,0.0,72,0.00,,---,0.00,VWS V13.01,2013-04-23 04:32:00,
2013-04-23 00:36:00,37.8,29.6,29.79,WSW,248,0.0,0.0,72,0.00,,---,0.00,VWS V13.01,2013-04-23 04:36:00,
2013-04-23 00:37:00,37.8,29.6,29.79,WSW,248,0.0,0.0,72,0.00,,---,0.00,VWS V13.01,2013-04-23 04:37:00,
2013-04-23 00:41:00,37.6,29.4,29.79,SE,135,0.0,0.0,72,0.00,,---,0.00,VWS V13.01,2013-04-23 04:41:00,
2013-04-23 00:42:00,37.6,29.4,29.79,SE,135,0.0,0.0,72,0.00,,---,0.00,VWS V13.01,2013-04-23 04:42:00,
2013-04-23 00:47:00,37.6,29.4,29.79,SW,225,0.0,0.0,72,0.00,,---,0.00,VWS V13.01,2013-04-23 04:47:00,
2013-04-23 00:52:00,37.6,29.4,29.79,SW,225,0.0,0.0,72,0.00,,---,0.00,VWS V13.01,2013-04-23 04:52:00,
2013-04-23 00:53:00,37.6,29.4,29.79,SW,225,0.0,0.0,72,0.00,,---,0.00,VWS V13.01,2013-04-23 04:53:00,
2013-04-23 00:57:00,37.6,29.4,29.79,WSW,248,0.0,0.0,72,0.00,,---,0.00,VWS V13.01,2013-04-23 04:57:00,
2013-04-23 00:58:00,37.6,29.4,29.79,South,180,0.0,0.0,72,0.00,,---,0.00,VWS V13.01,2013-04-23 04:58:00,
2013-04-23 01:02:00,37.6,29.4,29.79,WNW,292,2.2,2.2,72,0.00,,---,0.00,VWS V13.01,2013-04-23 05:02:00,
2013-04-23 01:03:00,37.6,29.4,29.76,WNW,292,2.2,2.2,72,0.00,,---,0.00,VWS V13.01,2013-04-23 05:03:00,
2013-04-23 01:07:00,37.6,29.4,29.76,SE,135,0.0,0.0,72,0.00,,---,0.00,VWS V13.01,2013-04-23 05:07:00,
2013-04-23 01:08:00,37.2,29.4,29.76,SE,135,0.0,0.0,73,0.00,,---,0.00,VWS V13.01,2013-04-23 05:08:00,
2013-04-23 01:12:00,37.2,29.4,29.76,East,90,0.0,0.0,73,0.00,,---,0.00,VWS V13.01,2013-04-23 05:12:00,
2013-04-23 01:13:00,37.2,29.4,29.76,East,90,0.0,0.0,73,0.00,,---,0.00,VWS V13.01,2013-04-23 05:13:00,
2013-04-23 01:14:00,37.2,29.4,29.76,SSE,158,0.0,0.0,73,0.00,,---,0.00,VWS V13.01,2013-04-23 05:14:00,
2013-04-23 01:17:00,37.2,29.4,29.76,WSW,248,0.0,0.0,73,0.00,,---,0.00,VWS V13.01,2013-04-23 05:17:00,
2013-04-23 01:18:00,37.2,29.4,29.76,WSW,248,0.0,0.0,73,0.00,,---,0.00,VWS V13.01,2013-04-23 05:18:00,
2013-04-23 01:19:00,37.2,29.4,29.76,SE,135,1.1,1.1,73,0.00,,---,0.00,VWS V13.01,2013-04-23 05:19:00,
2013-04-23 01:22:00,37.0,29.2,29.76,East,90,0.0,0.0,73,0.00,,---,0.00,VWS V13.01,2013-04-23 05:22:00,
2013-04-23 01:23:00,37.0,29.2,29.76,West,270,2.0,2.0,73,0.00,,---,0.00,VWS V13.01,2013-04-23 05:23:00,
2013-04-23 01:24:00,37.0,29.2,29.76,South,180,0.0,0.0,73,0.00,,---,0.00,VWS V13.01,2013-04-23 05:24:00,
2013-04-23 01:27:00,37.0,29.2,29.76,West,270,0.0,0.0,73,0.00,,---,0.00,VWS V13.01,2013-04-23 05:27:00,
2013-04-23 01:28:00,37.0,29.2,29.76,West,270,0.0,0.0,73,0.00,,---,0.00,VWS V13.01,2013-04-23 05:28:00,
2013-04-23 01:29:00,37.0,29.2,29.76,West,270,1.6,3.6,73,0.00,,---,0.00,VWS V13.01,2013-04-23 05:29:00,
2013-04-23 01:32:00,37.0,29.2,29.76,SSW,202,0.0,0.0,73,0.00,,---,0.00,VWS V13.01,2013-04-23 05:32:00,
2013-04-23 01:33:00,37.0,29.2,29.76,SSW,202,0.0,0.0,73,0.00,,---,0.00,VWS V13.01,2013-04-23 05:33:00,
2013-04-23 01:34:00,37.4,28.5,29.76,SSW,202,0.0,0.0,70,0.00,,---,0.00,VWS V13.01,2013-04-23 05:34:00,
2013-04-23 01:37:00,37.4,28.5,29.76,WSW,248,0.0,0.0,70,0.00,,---,0.00,VWS V13.01,2013-04-23 05:37:00,
2013-04-23 01:38:00,37.4,28.5,29.76,WSW,248,0.0,0.0,70,0.00,,---,0.00,VWS V13.01,2013-04-23 05:38:00,
2013-04-23 01:39:00,37.4,28.5,29.76,WSW,248,0.0,0.0,70,0.00,,---,0.00,VWS V13.01,2013-04-23 05:39:00,
2013-04-23 01:43:00,37.4,28.5,29.76,East,90,0.0,0.0,70,0.00,,---,0.00,VWS V13.01,2013-04-23 05:43:00,
2013-04-23 01:44:00,37.4,28.5,29.76,SE,135,0.0,0.0,70,0.00,,---,0.00,VWS V13.01,2013-04-23 05:44:00,
2013-04-23 01:48:00,37.4,28.5,29.76,SE,135,0.0,2.0,70,0.00,,---,0.00,VWS V13.01,2013-04-23 05:48:00,
2013-04-23 01:49:00,37.4,28.5,29.76,SE,135,0.0,0.0,70,0.00,,---,0.00,VWS V13.01,2013-04-23 05:49:00,
2013-04-23 01:50:00,37.4,28.5,29.76,SSE,158,0.0,0.0,70,0.00,,---,0.00,VWS V13.01,2013-04-23 05:50:00,
2013-04-23 01:53:00,37.4,28.5,29.76,SSE,158,0.0,0.0,70,0.00,,---,0.00,VWS V13.01,2013-04-23 05:53:00,
2013-04-23 01:54:00,37.4,28.5,29.76,WNW,292,3.6,3.6,70,0.00,,---,0.00,VWS V13.01,2013-04-23 05:54:00,
2013-04-23 01:55:00,37.4,28.5,29.76,SSE,158,1.1,3.6,70,0.00,,---,0.00,VWS V13.01,2013-04-23 05:55:00,
2013-04-23 01:58:00,37.4,28.5,29.76,South,180,0.0,1.1,70,0.00,,---,0.00,VWS V13.01,2013-04-23 05:58:00,
2013-04-23 01:59:00,37.0,26.8,29.76,South,180,0.0,0.0,66,0.00,,---,0.00,VWS V13.01,2013-04-23 05:59:00,
2013-04-23 02:00:00,37.0,26.8,29.76,ESE,112,0.0,1.1,66,0.00,,---,0.00,VWS V13.01,2013-04-23 06:00:00,
2013-04-23 02:03:00,37.0,26.8,29.76,NE,45,2.0,2.0,66,0.00,,---,0.00,VWS V13.01,2013-04-23 06:03:00,
2013-04-23 02:04:00,37.0,26.8,29.76,SE,135,2.2,2.2,66,0.00,,---,0.00,VWS V13.01,2013-04-23 06:04:00,
2013-04-23 02:05:00,37.0,26.8,29.76,SSW,202,0.9,0.9,66,0.00,,---,0.00,VWS V13.01,2013-04-23 06:05:00,
2013-04-23 02:08:00,37.0,26.8,29.76,SSE,158,0.0,2.7,66,0.00,,---,0.00,VWS V13.01,2013-04-23 06:08:00,
2013-04-23 02:09:00,37.0,26.8,29.76,SSE,158,0.0,2.7,66,0.00,,---,0.00,VWS V13.01,2013-04-23 06:09:00,
2013-04-23 02:10:00,37.0,26.4,29.76,SW,225,1.3,1.3,65,0.00,,---,0.00,VWS V13.01,2013-04-23 06:10:00,
2013-04-23 02:13:00,37.0,26.4,29.76,South,180,0.0,0.0,65,0.00,,---,0.00,VWS V13.01,2013-04-23 06:13:00,
2013-04-23 02:14:00,37.0,26.4,29.76,South,180,0.0,0.0,65,0.00,,---,0.00,VWS V13.01,2013-04-23 06:14:00,
2013-04-23 02:15:00,37.0,26.4,29.76,South,180,0.0,0.0,65,0.00,,---,0.00,VWS V13.01,2013-04-23 06:15:00,
2013-04-23 02:18:00,37.0,26.4,29.76,SSE,158,0.0,0.0,65,0.00,,---,0.00,VWS V13.01,2013-04-23 06:18:00,
2013-04-23 02:19:00,37.0,26.4,29.76,ESE,112,0.0,0.0,65,0.00,,---,0.00,VWS V13.01,2013-04-23 06:19:00,
2013-04-23 02:20:00,37.0,26.4,29.76,SSW,202,0.0,0.0,65,0.00,,---,0.00,VWS V13.01,2013-04-23 06:20:00,
2013-04-23 02:24:00,37.0,26.4,29.76,SSE,158,1.1,1.1,65,0.00,,---,0.00,VWS V13.01,2013-04-23 06:24:00,
2013-04-23 02:25:00,36.9,26.2,29.76,SW,225,0.0,2.2,65,0.00,,---,0.00,VWS V13.01,2013-04-23 06:25:00,
2013-04-23 02:29:00,36.9,26.2,29.76,NNE,22,1.6,1.6,65,0.00,,---,0.00,VWS V13.01,2013-04-23 06:29:00,
2013-04-23 02:30:00,36.9,26.2,29.76,NE,45,1.1,1.6,65,0.00,,---,0.00,VWS V13.01,2013-04-23 06:30:00,
2013-04-23 02:34:00,36.9,26.2,29.76,SSE,158,0.0,0.0,65,0.00,,---,0.00,VWS V13.01,2013-04-23 06:34:00,
2013-04-23 02:35:00,36.9,26.2,29.76,SSE,158,0.0,0.0,65,0.00,,---,0.00,VWS V13.01,2013-04-23 06:35:00,
2013-04-23 02:36:00,36.9,26.2,29.76,SSE,158,0.0,0.0,65,0.00,,---,0.00,VWS V13.01,2013-04-23 06:36:00,
2013-04-23 02:39:00,36.9,26.2,29.76,SSW,202,0.0,0.0,65,0.00,,---,0.00,VWS V13.01,2013-04-23 06:39:00,
2013-04-23 02:40:00,36.9,26.2,29.76,SSE,158,0.0,0.0,65,0.00,,---,0.00,VWS V13.01,2013-04-23 06:40:00,
2013-04-23 02:41:00,36.9,26.2,29.76,SW,225,0.0,0.0,65,0.00,,---,0.00,VWS V13.01,2013-04-23 06:41:00,
2013-04-23 02:44:00,36.9,26.2,29.74,SSW,202,0.0,0.0,65,0.00,,---,0.00,VWS V13.01,2013-04-23 06:44:00,
2013-04-23 02:45:00,36.9,26.2,29.74,West,270,0.0,0.0,65,0.00,,---,0.00,VWS V13.01,2013-04-23 06:45:00,
2013-04-23 02:47:00,36.9,26.2,29.74,East,90,1.3,1.3,65,0.00,,---,0.00,VWS V13.01,2013-04-23 06:47:00,
2013-04-23 02:49:00,36.9,26.2,29.74,South,180,0.0,0.0,65,0.00,,---,0.00,VWS V13.01,2013-04-23 06:49:00,
2013-04-23 02:50:00,36.9,26.2,29.74,South,180,0.0,0.0,65,0.00,,---,0.00,VWS V13.01,2013-04-23 06:50:00,
2013-04-23 02:52:00,36.9,26.2,29.74,South,180,0.0,0.0,65,0.00,,---,0.00,VWS V13.01,2013-04-23 06:52:00,
2013-04-23 02:54:00,36.9,26.2,29.74,NW,315,0.0,0.0,65,0.00,,---,0.00,VWS V13.01,2013-04-23 06:54:00,
2013-04-23 02:55:00,36.9,26.2,29.74,NW,315,0.0,0.0,65,0.00,,---,0.00,VWS V13.01,2013-04-23 06:55:00,
2013-04-23 02:57:00,36.5,26.2,29.74,ENE,68,0.0,0.0,66,0.00,,---,0.00,VWS V13.01,2013-04-23 06:57:00,
2013-04-23 02:59:00,36.5,26.6,29.74,SSE,158,0.0,0.0,67,0.00,,---,0.00,VWS V13.01,2013-04-23 06:59:00,
2013-04-23 03:00:00,36.5,26.6,29.74,SSE,158,0.0,0.0,67,0.00,,---,0.00,VWS V13.01,2013-04-23 07:00:00,
2013-04-23 03:03:00,36.5,26.6,29.74,ENE,68,0.0,0.0,67,0.00,,---,0.00,VWS V13.01,2013-04-23 07:03:00,
2013-04-23 03:04:00,36.3,26.4,29.74,WNW,292,1.3,1.3,67,0.00,,---,0.00,VWS V13.01,2013-04-23 07:04:00,
2013-04-23 03:05:00,36.3,26.4,29.74,WNW,292,1.3,1.3,67,0.00,,---,0.00,VWS V13.01,2013-04-23 07:05:00,
2013-04-23 03:06:00,36.3,26.4,29.74,West,270,0.0,0.0,67,0.00,,---,0.00,VWS V13.01,2013-04-23 07:06:00,
2013-04-23 03:08:00,36.3,26.4,29.74,NW,315,1.3,3.6,67,0.00,,---,0.00,VWS V13.01,2013-04-23 07:08:00,
2013-04-23 03:10:00,36.3,26.4,29.74,SSW,202,0.0,1.3,67,0.00,,---,0.00,VWS V13.01,2013-04-23 07:10:00,
2013-04-23 03:11:00,36.3,26.4,29.74,ESE,112,0.0,0.0,67,0.00,,---,0.00,VWS V13.01,2013-04-23 07:11:00,
2013-04-23 03:13:00,36.3,26.4,29.74,East,90,0.0,0.0,67,0.00,,---,0.00,VWS V13.01,2013-04-23 07:13:00,
2013-04-23 03:15:00,36.3,26.1,29.74,West,270,0.0,0.0,66,0.00,,---,0.00,VWS V13.01,2013-04-23 07:15:00,
2013-04-23 03:16:00,36.3,26.1,29.74,WSW,248,0.0,0.0,66,0.00,,---,0.00,VWS V13.01,2013-04-23 07:16:00,
2013-04-23 03:18:00,36.3,26.1,29.74,SSE,158,0.0,0.0,66,0.00,,---,0.00,VWS V13.01,2013-04-23 07:18:00,
2013-04-23 03:20:00,36.1,25.9,29.74,SSW,202,0.0,0.0,66,0.00,,---,0.00,VWS V13.01,2013-04-23 07:20:00,
2013-04-23 03:21:00,36.1,25.9,29.74,SSW,202,0.0,0.0,66,0.00,,---,0.00,VWS V13.01,2013-04-23 07:21:00,
2013-04-23 03:23:00,36.1,25.9,29.74,SSW,202,0.0,0.0,66,0.00,,---,0.00,VWS V13.01,2013-04-23 07:23:00,
2013-04-23 03:25:00,36.1,25.9,29.74,North,0,1.3,1.3,66,0.00,,---,0.00,VWS V13.01,2013-04-23 07:25:00,
2013-04-23 03:26:00,36.1,25.9,29.74,West,270,1.1,1.3,66,0.00,,---,0.00,VWS V13.01,2013-04-23 07:26:00,
2013-04-23 03:28:00,36.1,25.9,29.74,ENE,68,2.0,2.0,66,0.00,,---,0.00,VWS V13.01,2013-04-23 07:28:00,
2013-04-23 03:30:00,36.1,25.9,29.74,WSW,248,0.0,0.0,66,0.00,,---,0.00,VWS V13.01,2013-04-23 07:30:00,
2013-04-23 03:31:00,36.1,25.9,29.74,West,270,0.0,0.0,66,0.00,,---,0.00,VWS V13.01,2013-04-23 07:31:00,
2013-04-23 03:33:00,36.1,25.9,29.74,WSW,248,0.0,0.9,66,0.00,,---,0.00,VWS V13.01,2013-04-23 07:33:00,
2013-04-23 03:35:00,36.1,25.9,29.74,South,180,0.0,0.0,66,0.00,,---,0.00,VWS V13.01,2013-04-23 07:35:00,
2013-04-23 03:36:00,36.1,25.9,29.74,NE,45,0.0,0.0,66,0.00,,---,0.00,VWS V13.01,2013-04-23 07:36:00,
2013-04-23 03:38:00,36.1,25.9,29.74,NW,315,0.0,0.0,66,0.00,,---,0.00,VWS V13.01,2013-04-23 07:38:00,
2013-04-23 03:40:00,36.1,25.9,29.74,SW,225,2.5,2.5,66,0.00,,---,0.00,VWS V13.01,2013-04-23 07:40:00,
2013-04-23 03:41:00,36.1,25.9,29.74,SE,135,0.0,2.5,66,0.00,,---,0.00,VWS V13.01,2013-04-23 07:41:00,
2013-04-23 03:43:00,36.1,25.9,29.74,North,0,2.5,2.5,66,0.00,,---,0.00,VWS V13.01,2013-04-23 07:43:00,
2013-04-23 03:46:00,36.0,25.7,29.74,WNW,292,2.0,2.0,66,0.00,,---,0.00,VWS V13.01,2013-04-23 07:46:00,
2013-04-23 03:47:00,36.0,25.7,29.74,NNE,22,1.6,2.0,66,0.00,,---,0.00,VWS V13.01,2013-04-23 07:47:00,
2013-04-23 03:49:00,36.0,25.7,29.74,SW,225,0.0,0.0,66,0.00,,---,0.00,VWS V13.01,2013-04-23 07:49:00,
2013-04-23 03:51:00,35.8,25.5,29.74,NNW,338,0.9,2.0,66,0.00,,---,0.00,VWS V13.01,2013-04-23 07:51:00,
2013-04-23 03:52:00,35.8,25.5,29.74,SE,135,0.0,0.9,66,0.00,,---,0.00,VWS V13.01,2013-04-23 07:52:00,
2013-04-23 03:54:00,35.8,25.5,29.74,ENE,68,2.0,2.2,66,0.00,,---,0.00,VWS V13.01,2013-04-23 07:54:00,
2013-04-23 03:56:00,35.8,25.5,29.74,NE,45,1.1,3.1,66,0.00,,---,0.00,VWS V13.01,2013-04-23 07:56:00,
2013-04-23 03:57:00,35.8,25.5,29.74,ENE,68,0.9,3.1,66,0.00,,---,0.00,VWS V13.01,2013-04-23 07:57:00,
2013-04-23 03:59:00,35.8,25.5,29.74,SE,135,0.0,0.0,66,0.00,,---,0.00,VWS V13.01,2013-04-23 07:59:00,
2013-04-23 04:01:00,35.8,25.5,29.74,SSW,202,2.0,2.0,66,0.00,,---,0.00,VWS V13.01,2013-04-23 08:01:00,
2013-04-23 04:02:00,35.8,25.5,29.74,ESE,112,1.3,2.0,66,0.00,,---,0.00,VWS V13.01,2013-04-23 08:02:00,
2013-04-23 04:04:00,35.6,25.4,29.74,SE,135,0.0,1.1,66,0.00,,---,0.00,VWS V13.01,2013-04-23 08:04:00,
2013-04-23 04:06:00,35.6,25.4,29.74,ESE,112,0.0,0.0,66,0.00,,---,0.00,VWS V13.01,2013-04-23 08:06:00,
2013-04-23 04:07:00,35.6,25.4,29.74,ESE,112,0.0,0.0,66,0.00,,---,0.00,VWS V13.01,2013-04-23 08:07:00,
2013-04-23 04:09:00,35.6,25.4,29.71,ESE,112,0.0,1.1,66,0.00,,---,0.00,VWS V13.01,2013-04-23 08:09:00,
2013-04-23 04:12:00,35.6,25.4,29.71,ESE,112,0.0,1.3,66,0.00,,---,0.00,VWS V13.01,2013-04-23 08:12:00,
2013-04-23 04:14:00,35.8,25.5,29.71,ENE,68,2.2,2.2,66,0.00,,---,0.00,VWS V13.01,2013-04-23 08:14:00,
2013-04-23 04:17:00,35.8,25.5,29.71,NNE,22,0.0,0.0,66,0.00,,---,0.00,VWS V13.01,2013-04-23 08:17:00,
2013-04-23 04:18:00,35.8,25.5,29.71,SE,135,2.5,2.5,66,0.00,,---,0.00,VWS V13.01,2013-04-23 08:18:00,
2013-04-23 04:19:00,35.8,25.5,29.71,East,90,0.0,0.0,66,0.00,,---,0.00,VWS V13.01,2013-04-23 08:19:00,
2013-04-23 04:22:00,35.8,25.5,29.71,West,270,0.0,0.0,66,0.00,,---,0.00,VWS V13.01,2013-04-23 08:22:00,
2013-04-23 04:23:00,35.8,25.5,29.71,WNW,292,2.2,2.2,66,0.00,,---,0.00,VWS V13.01,2013-04-23 08:23:00,
2013-04-23 04:24:00,35.8,25.5,29.71,South,180,0.0,0.0,66,0.00,,---,0.00,VWS V13.01,2013-04-23 08:24:00,
2013-04-23 04:27:00,35.8,25.5,29.71,SE,135,1.1,1.1,66,0.00,,---,0.00,VWS V13.01,2013-04-23 08:27:00,
2013-04-23 04:28:00,36.3,26.1,29.71,SE,135,1.1,1.1,66,0.00,,---,0.00,VWS V13.01,2013-04-23 08:28:00,
2013-04-23 04:29:00,36.3,26.1,29.71,NW,315,1.3,1.3,66,0.00,,---,0.00,VWS V13.01,2013-04-23 08:29:00,
2013-04-23 04:32:00,36.3,26.1,29.71,East,90,0.0,0.0,66,0.00,,---,0.00,VWS V13.01,2013-04-23 08:32:00,
2013-04-23 04:33:00,36.3,26.1,29.71,East,90,0.0,0.0,66,0.00,,---,0.00,VWS V13.01,2013-04-23 08:33:00,
2013-04-23 04:35:00,36.3,26.1,29.71,ESE,112,1.1,1.1,66,0.00,,---,0.00,VWS V13.01,2013-04-23 08:35:00,
2013-04-23 04:37:00,36.3,26.1,29.71,NNW,338,1.1,1.6,66,0.00,,---,0.00,VWS V13.01,2013-04-23 08:37:00,
2013-04-23 04:38:00,36.3,26.1,29.71,NNW,338,1.1,1.1,66,0.00,,---,0.00,VWS V13.01,2013-04-23 08:38:00,
2013-04-23 04:40:00,36.3,26.1,29.71,North,0,1.1,1.1,66,0.00,,---,0.00,VWS V13.01,2013-04-23 08:40:00,
2013-04-23 04:42:00,36.3,26.1,29.71,South,180,0.0,0.0,66,0.00,,---,0.00,VWS V13.01,2013-04-23 08:42:00,
2013-04-23 04:43:00,36.3,26.1,29.71,South,180,0.0,0.0,66,0.00,,---,0.00,VWS V13.01,2013-04-23 08:43:00,
2013-04-23 04:44:00,36.3,26.1,29.71,South,180,0.0,0.0,66,0.00,,---,0.00,VWS V13.01,2013-04-23 08:44:00,
2013-04-23 04:45:00,36.3,26.1,29.71,SSE,158,0.0,0.0,66,0.00,,---,0.00,VWS V13.01,2013-04-23 08:45:00,
2013-04-23 04:48:00,36.3,26.1,29.71,ESE,112,0.0,0.0,66,0.00,,---,0.00,VWS V13.01,2013-04-23 08:48:00,
2013-04-23 04:49:00,36.3,26.1,29.71,ESE,112,0.0,0.0,66,0.00,,---,0.00,VWS V13.01,2013-04-23 08:49:00,
2013-04-23 04:50:00,36.3,26.1,29.71,ESE,112,0.0,0.0,66,0.00,,---,0.00,VWS V13.01,2013-04-23 08:50:00,
2013-04-23 04:53:00,36.3,26.1,29.71,WSW,248,0.0,1.6,66,0.00,,---,0.00,VWS V13.01,2013-04-23 08:53:00,
2013-04-23 04:54:00,36.3,26.1,29.71,ENE,68,0.0,0.0,66,0.00,,---,0.00,VWS V13.01,2013-04-23 08:54:00,
2013-04-23 04:55:00,36.3,26.1,29.71,SE,135,0.0,1.6,66,0.00,,---,0.00,VWS V13.01,2013-04-23 08:55:00,
2013-04-23 04:58:00,36.3,26.1,29.71,East,90,0.0,0.0,66,0.00,,---,0.00,VWS V13.01,2013-04-23 08:58:00,
2013-04-23 04:59:00,36.3,26.1,29.71,NNW,338,0.0,2.5,66,0.00,,---,0.00,VWS V13.01,2013-04-23 08:59:00,
2013-04-23 05:00:00,36.3,26.1,29.71,North,0,0.0,2.5,66,0.00,,---,0.00,VWS V13.01,2013-04-23 09:00:00,
2013-04-23 05:03:00,36.7,26.4,29.71,North,0,2.9,2.9,66,0.00,,---,0.00,VWS V13.01,2013-04-23 09:03:00,
2013-04-23 05:04:00,36.7,26.4,29.71,SE,135,0.0,0.0,66,0.00,,---,0.00,VWS V13.01,2013-04-23 09:04:00,
2013-04-23 05:05:00,36.7,26.4,29.71,East,90,2.2,2.2,66,0.00,,---,0.00,VWS V13.01,2013-04-23 09:05:00,
2013-04-23 05:08:00,36.7,26.4,29.71,NNW,338,1.1,1.1,66,0.00,,---,0.00,VWS V13.01,2013-04-23 09:08:00,
2013-04-23 05:09:00,36.7,26.4,29.71,ESE,112,0.9,0.9,66,0.00,,---,0.00,VWS V13.01,2013-04-23 09:09:00,
2013-04-23 05:10:00,36.7,26.4,29.71,ESE,112,0.0,0.0,66,0.00,,---,0.00,VWS V13.01,2013-04-23 09:10:00,
2013-04-23 05:11:00,36.7,26.4,29.71,NNW,338,1.3,1.3,66,0.00,,---,0.00,VWS V13.01,2013-04-23 09:11:00,
2013-04-23 05:13:00,36.7,26.4,29.71,SSW,202,0.0,0.0,66,0.00,,---,0.00,VWS V13.01,2013-04-23 09:13:00,
2013-04-23 05:14:00,36.7,26.4,29.71,East,90,0.0,2.2,66,0.00,,---,0.00,VWS V13.01,2013-04-23 09:14:00,
2013-04-23 05:15:00,36.7,26.4,29.71,East,90,0.0,0.0,66,0.00,,---,0.00,VWS V13.01,2013-04-23 09:15:00,
2013-04-23 05:18:00,36.7,26.4,29.71,NE,45,2.5,2.5,66,0.00,,---,0.00,VWS V13.01,2013-04-23 09:18:00,
2013-04-23 05:19:00,36.7,26.4,29.71,NW,315,0.0,0.0,66,0.00,,---,0.00,VWS V13.01,2013-04-23 09:19:00,
2013-04-23 05:21:00,36.7,26.4,29.71,East,90,0.0,0.0,66,0.00,,---,0.00,VWS V13.01,2013-04-23 09:21:00,
2013-04-23 05:23:00,36.7,26.4,29.71,North,0,1.3,2.9,66,0.00,,---,0.00,VWS V13.01,2013-04-23 09:23:00,
2013-04-23 05:24:00,36.7,26.4,29.71,North,0,2.7,2.9,66,0.00,,---,0.00,VWS V13.01,2013-04-23 09:24:00,
2013-04-23 05:25:00,36.7,26.4,29.71,ENE,68,0.0,2.7,66,0.00,,---,0.00,VWS V13.01,2013-04-23 09:25:00,
2013-04-23 05:26:00,36.7,26.4,29.71,North,0,2.0,2.0,66,0.00,,---,0.00,VWS V13.01,2013-04-23 09:26:00,
2013-04-23 05:28:00,36.7,26.4,29.71,NE,45,1.6,1.6,66,0.00,,---,0.00,VWS V13.01,2013-04-23 09:28:00,
2013-04-23 05:29:00,36.7,26.4,29.71,ENE,68,1.3,1.6,66,0.00,,---,0.00,VWS V13.01,2013-04-23 09:29:00,
2013-04-23 05:30:00,36.7,26.4,29.71,ENE,68,1.3,1.3,66,0.00,,---,0.00,VWS V13.01,2013-04-23 09:30:00,
2013-04-23 05:31:00,36.7,26.0,29.71,North,0,0.0,0.0,65,0.00,,---,0.00,VWS V13.01,2013-04-23 09:31:00,
2013-04-23 05:34:00,36.7,26.0,29.71,NNW,338,2.5,2.5,65,0.00,,---,0.00,VWS V13.01,2013-04-23 09:34:00,
2013-04-23 05:35:00,36.7,26.0,29.71,NNW,338,2.5,2.5,65,0.00,,---,0.00,VWS V13.01,2013-04-23 09:35:00,
2013-04-23 05:36:00,36.7,26.0,29.71,East,90,0.0,2.7,65,0.00,,---,0.00,VWS V13.01,2013-04-23 09:36:00,
2013-04-23 05:39:00,36.7,26.0,29.71,NW,315,0.0,2.0,65,0.00,,---,0.00,VWS V13.01,2013-04-23 09:39:00,
2013-04-23 05:40:00,36.7,26.0,29.71,NW,315,0.0,2.0,65,0.00,,---,0.00,VWS V13.01,2013-04-23 09:40:00,
2013-04-23 05:41:00,36.7,26.0,29.71,WNW,292,2.2,2.2,65,0.00,,---,0.00,VWS V13.01,2013-04-23 09:41:00,
2013-04-23 05:45:00,36.7,26.0,29.71,East,90,0.0,0.0,65,0.00,,---,0.00,VWS V13.01,2013-04-23 09:45:00,
2013-04-23 05:46:00,36.7,26.0,29.71,East,90,2.5,2.5,65,0.00,,---,0.00,VWS V13.01,2013-04-23 09:46:00,
2013-04-23 05:50:00,36.7,26.0,29.71,West,270,0.0,0.0,65,0.00,,---,0.00,VWS V13.01,2013-04-23 09:50:00,
2013-04-23 05:51:00,36.9,26.6,29.71,ESE,112,2.5,2.5,66,0.00,,---,0.00,VWS V13.01,2013-04-23 09:51:00,
2013-04-23 05:55:00,36.9,26.6,29.71,East,90,0.9,0.9,66,0.00,,---,0.00,VWS V13.01,2013-04-23 09:55:00,
2013-04-23 05:56:00,37.0,26.8,29.71,WNW,292,2.5,2.5,66,0.00,,---,0.00,VWS V13.01,2013-04-23 09:56:00,
2013-04-23 06:00:00,36.9,26.6,29.71,WNW,292,1.6,2.0,66,0.00,,---,0.00,VWS V13.01,2013-04-23 10:00:00,
2013-04-23 06:01:00,36.9,26.6,29.71,ESE,112,0.0,0.0,66,0.00,,---,0.00,VWS V13.01,2013-04-23 10:01:00,
2013-04-23 06:05:00,36.9,26.6,29.71,North,0,2.0,3.4,66,0.00,,---,0.00,VWS V13.01,2013-04-23 10:05:00,
2013-04-23 06:06:00,36.9,26.6,29.71,NNE,22,3.1,3.1,66,0.00,,---,0.00,VWS V13.01,2013-04-23 10:06:00,
2013-04-23 06:07:00,36.9,26.6,29.71,East,90,1.1,3.1,66,0.00,,---,0.00,VWS V13.01,2013-04-23 10:07:00,
2013-04-23 06:10:00,36.9,26.6,29.68,NNE,22,0.0,0.0,66,0.00,,---,0.00,VWS V13.01,2013-04-23 10:10:00,
2013-04-23 06:11:00,36.9,26.6,29.68,East,90,1.6,1.6,66,0.00,,---,0.00,VWS V13.01,2013-04-23 10:11:00,
2013-04-23 06:12:00,36.9,26.6,29.68,NNW,338,1.6,1.6,66,0.00,,---,0.00,VWS V13.01,2013-04-23 10:12:00,
2013-04-23 06:15:00,36.9,26.6,29.68,NNW,338,2.0,2.0,66,0.00,,---,0.00,VWS V13.01,2013-04-23 10:15:00,
2013-04-23 06:16:00,36.9,26.6,29.68,NW,315,2.7,2.7,66,0.00,,---,0.00,VWS V13.01,2013-04-23 10:16:00,
2013-04-23 06:17:00,36.9,26.6,29.68,NW,315,2.7,2.7,66,0.00,,---,0.00,VWS V13.01,2013-04-23 10:17:00,
2013-04-23 06:20:00,36.9,26.6,29.68,North,0,2.5,2.5,66,0.00,,---,0.00,VWS V13.01,2013-04-23 10:20:00,
2013-04-23 06:21:00,36.9,26.6,29.68,North,0,2.5,2.5,66,0.00,,---,0.00,VWS V13.01,2013-04-23 10:21:00,
2013-04-23 06:22:00,36.9,26.6,29.68,NNE,22,2.2,2.5,66,0.00,,---,0.00,VWS V13.01,2013-04-23 10:22:00,
2013-04-23 06:25:00,37.0,26.8,29.68,ENE,68,0.0,2.5,66,0.00,,---,0.00,VWS V13.01,2013-04-23 10:25:00,
2013-04-23 06:26:00,37.0,26.8,29.68,NNE,22,0.0,0.0,66,0.00,,---,0.00,VWS V13.01,2013-04-23 10:26:00,
2013-04-23 06:27:00,37.0,26.8,29.68,NNE,22,0.0,0.0,66,0.00,,---,0.00,VWS V13.01,2013-04-23 10:27:00,
2013-04-23 06:31:00,37.0,26.8,29.68,East,90,2.2,2.7,66,0.00,,---,0.00,VWS V13.01,2013-04-23 10:31:00,
2013-04-23 06:32:00,37.0,26.8,29.68,East,90,0.0,0.0,66,0.00,,---,0.00,VWS V13.01,2013-04-23 10:32:00,
2013-04-23 06:33:00,37.0,26.8,29.68,East,90,1.1,1.1,66,0.00,,---,0.00,VWS V13.01,2013-04-23 10:33:00,
2013-04-23 06:36:00,37.0,26.8,29.68,ESE,112,0.0,0.0,66,0.00,,---,0.00,VWS V13.01,2013-04-23 10:36:00,
2013-04-23 06:37:00,37.0,26.8,29.68,SE,135,0.9,0.9,66,0.00,,---,0.00,VWS V13.01,2013-04-23 10:37:00,
2013-04-23 06:38:00,37.0,26.8,29.68,East,90,0.0,0.9,66,0.00,,---,0.00,VWS V13.01,2013-04-23 10:38:00,
2013-04-23 06:41:00,37.0,26.8,29.68,ENE,68,0.0,0.0,66,0.00,,---,0.00,VWS V13.01,2013-04-23 10:41:00,
2013-04-23 06:42:00,37.0,26.8,29.68,SW,225,0.0,0.9,66,0.00,,---,0.00,VWS V13.01,2013-04-23 10:42:00,
2013-04-23 06:43:00,37.0,26.8,29.68,SW,225,0.0,0.9,66,0.00,,---,0.00,VWS V13.01,2013-04-23 10:43:00,
2013-04-23 06:46:00,37.4,27.1,29.68,ESE,112,0.9,2.0,66,0.00,,---,0.00,VWS V13.01,2013-04-23 10:46:00,
2013-04-23 06:47:00,37.4,27.1,29.71,ESE,112,0.9,0.9,66,0.00,,---,0.00,VWS V13.01,2013-04-23 10:47:00,
2013-04-23 06:48:00,37.4,27.1,29.71,SW,225,1.6,1.6,66,0.00,,---,0.00,VWS V13.01,2013-04-23 10:48:00,
2013-04-23 06:51:00,37.4,27.1,29.71,NNE,22,1.6,1.6,66,0.00,,---,0.00,VWS V13.01,2013-04-23 10:51:00,
2013-04-23 06:52:00,37.4,27.1,29.71,ENE,68,0.0,0.0,66,0.00,,---,0.00,VWS V13.01,2013-04-23 10:52:00,
2013-04-23 06:53:00,37.4,27.1,29.71,ESE,112,0.9,0.9,66,0.00,,---,0.00,VWS V13.01,2013-04-23 10:53:00,
2013-04-23 06:56:00,37.4,27.1,29.71,North,0,2.9,2.9,66,0.00,,---,0.00,VWS V13.01,2013-04-23 10:56:00,
2013-04-23 06:57:00,37.4,27.1,29.71,SE,135,0.9,2.9,66,0.00,,---,0.00,VWS V13.01,2013-04-23 10:57:00,
2013-04-23 06:58:00,37.4,27.1,29.71,SE,135,0.9,2.9,66,0.00,,---,0.00,VWS V13.01,2013-04-23 10:58:00,
2013-04-23 07:01:00,37.6,27.3,29.71,NNW,338,0.0,3.1,66,0.00,,---,0.00,VWS V13.01,2013-04-23 11:01:00,
2013-04-23 07:02:00,37.6,27.3,29.68,WSW,248,1.6,1.6,66,0.00,,---,0.00,VWS V13.01,2013-04-23 11:02:00,
2013-04-23 07:03:00,37.6,27.3,29.68,NW,315,2.0,2.0,66,0.00,,---,0.00,VWS V13.01,2013-04-23 11:03:00,
2013-04-23 07:07:00,37.6,27.3,29.68,NE,45,1.1,1.1,66,0.00,,---,0.00,VWS V13.01,2013-04-23 11:07:00,
2013-04-23 07:08:00,37.6,27.3,29.68,NE,45,0.0,1.1,66,0.00,,---,0.00,VWS V13.01,2013-04-23 11:08:00,
2013-04-23 07:12:00,37.6,27.3,29.68,East,90,0.0,2.0,66,0.00,,---,0.00,VWS V13.01,2013-04-23 11:12:00,
2013-04-23 07:13:00,37.6,27.3,29.68,NW,315,2.7,2.7,66,0.00,,---,0.00,VWS V13.01,2013-04-23 11:13:00,
2013-04-23 07:17:00,37.8,27.8,29.68,North,0,2.0,3.1,67,0.00,,---,0.00,VWS V13.01,2013-04-23 11:17:00,
2013-04-23 07:18:00,37.8,27.8,29.68,North,0,2.0,3.1,67,0.00,,---,0.00,VWS V13.01,2013-04-23 11:18:00,
2013-04-23 07:22:00,37.6,27.6,29.68,WNW,292,3.1,3.1,67,0.00,,---,0.00,VWS V13.01,2013-04-23 11:22:00,
2013-04-23 07:23:00,37.6,27.6,29.68,WNW,292,3.1,3.1,67,0.00,,---,0.00,VWS V13.01,2013-04-23 11:23:00,
2013-04-23 07:24:00,37.6,27.6,29.68,North,0,3.4,3.4,67,0.00,,---,0.00,VWS V13.01,2013-04-23 11:24:00,
2013-04-23 07:27:00,37.6,27.6,29.68,NE,45,1.6,1.6,67,0.00,,---,0.00,VWS V13.01,2013-04-23 11:27:00,
2013-04-23 07:28:00,37.6,27.6,29.68,NE,45,1.6,1.6,67,0.00,,---,0.00,VWS V13.01,2013-04-23 11:28:00,
2013-04-23 07:29:00,37.6,27.6,29.68,ENE,68,1.3,1.6,67,0.00,,---,0.00,VWS V13.01,2013-04-23 11:29:00,
2013-04-23 07:33:00,37.6,27.6,29.68,West,270,0.0,1.6,67,0.00,,---,0.00,VWS V13.01,2013-04-23 11:33:00,
2013-04-23 07:34:00,37.6,27.6,29.68,NW,315,1.3,1.3,67,0.00,,---,0.00,VWS V13.01,2013-04-23 11:34:00,
2013-04-23 07:38:00,37.6,27.6,29.68,West,270,2.0,2.0,67,0.00,,---,0.00,VWS V13.01,2013-04-23 11:38:00,
2013-04-23 07:39:00,37.6,27.6,29.68,West,270,1.3,2.0,67,0.00,,---,0.00,VWS V13.01,2013-04-23 11:39:00,
2013-04-23 07:43:00,37.6,27.6,29.68,North,0,2.9,2.9,67,0.00,,---,0.00,VWS V13.01,2013-04-23 11:43:00,
2013-04-23 07:44:00,37.6,27.6,29.68,NNW,338,1.3,2.9,67,0.00,,---,0.00,VWS V13.01,2013-04-23 11:44:00,
2013-04-23 07:45:00,37.6,27.6,29.68,NE,45,1.3,1.3,67,0.00,,---,0.00,VWS V13.01,2013-04-23 11:45:00,
2013-04-23 07:48:00,37.6,28.4,29.68,NE,45,1.1,1.1,69,0.00,,---,0.00,VWS V13.01,2013-04-23 11:48:00,
2013-04-23 07:49:00,37.6,28.4,29.68,ESE,112,0.0,1.1,69,0.00,,---,0.00,VWS V13.01,2013-04-23 11:49:00,
2013-04-23 07:50:00,37.6,28.4,29.68,WSW,248,0.0,0.0,69,0.00,,---,0.00,VWS V13.01,2013-04-23 11:50:00,
2013-04-23 07:53:00,37.6,28.4,29.68,NE,45,0.0,0.9,69,0.00,,---,0.00,VWS V13.01,2013-04-23 11:53:00,
2013-04-23 07:54:00,37.6,28.4,29.68,NE,45,0.0,0.9,69,0.00,,---,0.00,VWS V13.01,2013-04-23 11:54:00,
2013-04-23 07:55:00,37.6,28.4,29.68,NE,45,2.5,2.5,69,0.00,,---,0.00,VWS V13.01,2013-04-23 11:55:00,
2013-04-23 07:58:00,37.6,28.4,29.68,SSE,158,0.0,0.0,69,0.00,,---,0.00,VWS V13.01,2013-04-23 11:58:00,
2013-04-23 07:59:00,37.6,28.4,29.68,SE,135,0.0,0.0,69,0.00,,---,0.00,VWS V13.01,2013-04-23 11:59:00,
2013-04-23 08:01:00,37.6,28.4,29.68,NNW,338,2.2,2.2,69,0.00,,---,0.00,VWS V13.01,2013-04-23 12:01:00,
2013-04-23 08:03:00,37.6,28.4,29.68,West,270,0.0,0.0,69,0.00,,---,0.00,VWS V13.01,2013-04-23 12:03:00,
2013-04-23 08:04:00,37.6,28.4,29.68,West,270,0.0,0.0,69,0.00,,---,0.00,VWS V13.01,2013-04-23 12:04:00,
2013-04-23 08:05:00,37.6,28.4,29.68,North,0,1.3,1.3,69,0.00,,---,0.00,VWS V13.01,2013-04-23 12:05:00,
2013-04-23 08:06:00,37.6,28.4,29.68,NE,45,1.3,2.0,69,0.00,,---,0.00,VWS V13.01,2013-04-23 12:06:00,
2013-04-23 08:08:00,37.6,28.4,29.68,ENE,68,0.0,2.9,69,0.00,,---,0.00,VWS V13.01,2013-04-23 12:08:00,
2013-04-23 08:09:00,37.6,28.4,29.68,ESE,112,0.0,2.9,69,0.00,,---,0.00,VWS V13.01,2013-04-23 12:09:00,
2013-04-23 08:10:00,37.6,28.4,29.68,SE,135,0.0,0.0,69,0.00,,---,0.00,VWS V13.01,2013-04-23 12:10:00,
2013-04-23 08:11:00,37.9,29.0,29.68,NW,315,0.9,0.9,70,0.00,,---,0.00,VWS V13.01,2013-04-23 12:11:00,
2013-04-23 08:13:00,37.9,29.0,29.68,ENE,68,2.0,2.0,70,0.00,,---,0.00,VWS V13.01,2013-04-23 12:13:00,
2013-04-23 08:14:00,37.9,29.0,29.68,East,90,0.0,2.0,70,0.00,,---,0.00,VWS V13.01,2013-04-23 12:14:00,
2013-04-23 08:15:00,37.9,29.0,29.68,East,90,0.0,2.0,70,0.00,,---,0.00,VWS V13.01,2013-04-23 12:15:00,
2013-04-23 08:16:00,37.9,29.0,29.68,East,90,0.0,0.0,70,0.00,,---,0.00,VWS V13.01,2013-04-23 12:16:00,
2013-04-23 08:19:00,37.9,29.0,29.68,North,0,3.6,3.6,70,0.00,,---,0.00,VWS V13.01,2013-04-23 12:19:00,
2013-04-23 08:20:00,37.9,29.0,29.68,NNE,22,2.0,3.6,70,0.00,,---,0.00,VWS V13.01,2013-04-23 12:20:00,
2013-04-23 08:21:00,37.9,29.0,29.68,NNE,22,3.1,3.1,70,0.00,,---,0.00,VWS V13.01,2013-04-23 12:21:00,
2013-04-23 08:24:00,37.8,29.2,29.68,NE,45,0.0,1.3,71,0.00,,---,0.00,VWS V13.01,2013-04-23 12:24:00,
2013-04-23 08:25:00,37.8,29.2,29.68,NE,45,0.9,0.9,71,0.00,,---,0.00,VWS V13.01,2013-04-23 12:25:00,
2013-04-23 08:26:00,37.8,29.2,29.68,NNW,338,1.6,1.6,71,0.00,,---,0.00,VWS V13.01,2013-04-23 12:26:00,
2013-04-23 08:29:00,37.8,29.2,29.68,North,0,0.0,0.0,71,0.00,,---,0.00,VWS V13.01,2013-04-23 12:29:00,
2013-04-23 08:30:00,37.8,29.2,29.68,North,0,0.0,0.0,71,0.00,,---,0.00,VWS V13.01,2013-04-23 12:30:00,
2013-04-23 08:31:00,37.8,29.2,29.68,NNE,22,0.0,0.0,71,0.00,,---,0.00,VWS V13.01,2013-04-23 12:31:00,
2013-04-23 08:34:00,37.8,29.6,29.68,East,90,1.1,3.1,72,0.00,,---,0.00,VWS V13.01,2013-04-23 12:34:00,
2013-04-23 08:35:00,37.8,29.6,29.68,NE,45,2.0,2.0,72,0.00,,---,0.00,VWS V13.01,2013-04-23 12:35:00,
2013-04-23 08:36:00,37.9,29.7,29.68,ENE,68,0.0,2.0,72,0.00,,---,0.00,VWS V13.01,2013-04-23 12:36:00,
2013-04-23 08:39:00,38.1,29.9,29.68,North,0,0.0,0.0,72,0.00,,---,0.00,VWS V13.01,2013-04-23 12:39:00,
2013-04-23 08:40:00,38.1,29.9,29.68,North,0,0.0,0.0,72,0.00,,---,0.00,VWS V13.01,2013-04-23 12:40:00,
2013-04-23 08:42:00,38.1,29.9,29.68,NW,315,1.6,1.6,72,0.00,,---,0.00,VWS V13.01,2013-04-23 12:42:00,
2013-04-23 08:44:00,38.1,29.9,29.68,East,90,0.0,2.9,72,0.00,,---,0.00,VWS V13.01,2013-04-23 12:44:00,
2013-04-23 08:45:00,38.1,29.9,29.68,East,90,0.0,2.9,72,0.00,,---,0.00,VWS V13.01,2013-04-23 12:45:00,
2013-04-23 08:47:00,38.1,29.9,29.68,East,90,0.9,0.9,72,0.00,,---,0.00,VWS V13.01,2013-04-23 12:47:00,
2013-04-23 08:50:00,38.1,29.9,29.68,NNE,22,1.1,1.1,72,0.00,,---,0.00,VWS V13.01,2013-04-23 12:50:00,
2013-04-23 08:52:00,38.1,29.9,29.68,NW,315,2.0,2.0,72,0.00,,---,0.00,VWS V13.01,2013-04-23 12:52:00,
2013-04-23 08:55:00,38.1,29.9,29.68,North,0,0.9,1.3,72,0.00,,---,0.00,VWS V13.01,2013-04-23 12:55:00,
2013-04-23 08:57:00,38.1,29.9,29.68,North,0,3.6,3.6,72,0.00,,---,0.00,VWS V13.01,2013-04-23 12:57:00,
2013-04-23 09:00:00,38.1,29.9,29.68,NNE,22,2.7,2.7,72,0.00,,---,0.00,VWS V13.01,2013-04-23 13:00:00,
2013-04-23 09:01:00,38.1,29.9,29.68,NW,315,2.2,2.7,72,0.00,,---,0.00,VWS V13.01,2013-04-23 13:01:00,
2013-04-23 09:03:00,39.2,31.0,29.68,SE,135,0.0,1.6,72,0.00,,---,0.00,VWS V13.01,2013-04-23 13:03:00,
2013-04-23 09:05:00,39.2,31.0,29.68,SW,225,0.0,0.0,72,0.00,,---,0.00,VWS V13.01,2013-04-23 13:05:00,
2013-04-23 09:06:00,39.2,31.0,29.68,SW,225,0.0,0.0,72,0.00,,---,0.00,VWS V13.01,2013-04-23 13:06:00,
2013-04-23 09:08:00,39.2,31.0,29.68,ESE,112,0.0,0.0,72,0.00,,---,0.00,VWS V13.01,2013-04-23 13:08:00,
2013-04-23 09:10:00,39.7,31.5,29.65,North,0,2.9,2.9,72,0.00,,---,0.00,VWS V13.01,2013-04-23 13:10:00,
2013-04-23 09:11:00,39.7,31.5,29.65,North,0,2.9,2.9,72,0.00,,---,0.00,VWS V13.01,2013-04-23 13:11:00,
2013-04-23 09:13:00,39.7,31.5,29.65,SSW,202,0.0,2.0,72,0.00,,---,0.00,VWS V13.01,2013-04-23 13:13:00,
2013-04-23 09:15:00,39.7,31.5,29.65,South,180,2.5,2.5,72,0.00,,---,0.00,VWS V13.01,2013-04-23 13:15:00,
2013-04-23 09:16:00,39.7,31.5,29.65,South,180,2.5,2.5,72,0.00,,---,0.00,VWS V13.01,2013-04-23 13:16:00,
2013-04-23 09:18:00,39.7,31.5,29.65,NW,315,1.3,2.5,72,0.00,,---,0.00,VWS V13.01,2013-04-23 13:18:00,
2013-04-23 09:21:00,39.7,31.5,29.65,SE,135,0.0,0.0,72,0.00,,---,0.00,VWS V13.01,2013-04-23 13:21:00,
2013-04-23 09:23:00,39.7,31.5,29.65,NNW,338,3.4,3.4,72,0.00,,---,0.00,VWS V13.01,2013-04-23 13:23:00,
2013-04-23 09:26:00,39.7,31.5,29.65,North,0,0.9,2.2,72,0.00,,---,0.00,VWS V13.01,2013-04-23 13:26:00,
2013-04-23 09:27:00,39.7,31.1,29.65,East,90,2.0,2.0,71,0.00,,---,0.00,VWS V13.01,2013-04-23 13:27:00,
2013-04-23 09:29:00,39.7,31.1,29.65,East,90,3.1,3.1,71,0.00,,---,0.00,VWS V13.01,2013-04-23 13:29:00,
2013-04-23 09:31:00,39.7,31.1,29.65,WNW,292,3.4,3.4,71,0.00,,---,0.00,VWS V13.01,2013-04-23 13:31:00,
2013-04-23 09:32:00,39.7,31.1,29.65,NW,315,2.7,3.4,71,0.00,,---,0.00,VWS V13.01,2013-04-23 13:32:00,
2013-04-23 09:34:00,39.7,31.1,29.65,SE,135,2.2,2.2,71,0.00,,---,0.00,VWS V13.01,2013-04-23 13:34:00,
2013-04-23 09:36:00,39.7,31.1,29.65,NE,45,1.1,1.1,71,0.00,,---,0.00,VWS V13.01,2013-04-23 13:36:00,
2013-04-23 09:37:00,39.7,31.1,29.65,NNW,338,1.1,1.1,71,0.00,,---,0.00,VWS V13.01,2013-04-23 13:37:00,
2013-04-23 09:39:00,39.7,31.1,29.65,South,180,0.0,1.1,71,0.00,,---,0.00,VWS V13.01,2013-04-23 13:39:00,
2013-04-23 09:41:00,39.7,31.1,29.65,NNE,22,2.7,2.7,71,0.00,,---,0.00,VWS V13.01,2013-04-23 13:41:00,
2013-04-23 09:42:00,39.7,31.1,29.65,North,0,0.0,2.7,71,0.00,,---,0.00,VWS V13.01,2013-04-23 13:42:00,
2013-04-23 09:43:00,39.7,31.1,29.65,ESE,112,2.5,2.5,71,0.00,,---,0.00,VWS V13.01,2013-04-23 13:43:00,
2013-04-23 09:45:00,39.7,31.1,29.65,East,90,0.0,0.0,71,0.00,,---,0.00,VWS V13.01,2013-04-23 13:45:00,
2013-04-23 09:46:00,40.3,32.0,29.65,East,90,0.0,0.0,72,0.00,,---,0.00,VWS V13.01,2013-04-23 13:46:00,
2013-04-23 09:47:00,40.3,32.0,29.65,SSE,158,1.1,1.1,72,0.00,,---,0.00,VWS V13.01,2013-04-23 13:47:00,
2013-04-23 09:48:00,40.3,32.0,29.65,SE,135,0.0,0.0,72,0.00,,---,0.00,VWS V13.01,2013-04-23 13:48:00,
2013-04-23 09:50:00,40.3,32.0,29.65,SE,135,0.0,0.0,72,0.00,,---,0.00,VWS V13.01,2013-04-23 13:50:00,
2013-04-23 09:51:00,40.6,32.7,29.65,SE,135,0.0,0.0,73,0.00,,---,0.00,VWS V13.01,2013-04-23 13:51:00,
2013-04-23 09:52:00,40.6,32.7,29.65,NE,45,0.0,0.0,73,0.00,,---,0.00,VWS V13.01,2013-04-23 13:52:00,
2013-04-23 09:54:00,40.6,32.7,29.65,NW,315,2.5,2.5,73,0.00,,---,0.00,VWS V13.01,2013-04-23 13:54:00,
2013-04-23 09:55:00,40.6,32.7,29.65,SW,225,2.7,2.7,73,0.00,,---,0.00,VWS V13.01,2013-04-23 13:55:00,
2013-04-23 09:56:00,40.6,32.7,29.65,South,180,2.5,2.7,73,0.00,,---,0.00,VWS V13.01,2013-04-23 13:56:00,
2013-04-23 09:57:00,40.6,32.7,29.65,SSE,158,2.0,2.5,73,0.00,,---,0.00,VWS V13.01,2013-04-23 13:57:00,
2013-04-23 09:59:00,40.6,32.7,29.65,NE,45,2.5,2.5,73,0.00,,---,0.00,VWS V13.01,2013-04-23 13:59:00,
2013-04-23 10:00:00,40.6,32.7,29.65,NE,45,2.5,2.5,73,0.00,,---,0.00,VWS V13.01,2013-04-23 14:00:00,
2013-04-23 10:01:00,40.6,32.7,29.65,North,0,1.3,1.3,73,0.00,,---,0.00,VWS V13.01,2013-04-23 14:01:00,
2013-04-23 10:02:00,40.6,32.7,29.65,North,0,1.3,1.3,73,0.00,,---,0.00,VWS V13.01,2013-04-23 14:02:00,
2013-04-23 10:04:00,40.6,32.7,29.65,WSW,248,2.5,2.5,73,0.00,,---,0.00,VWS V13.01,2013-04-23 14:04:00,
2013-04-23 10:05:00,40.6,32.7,29.65,North,0,1.6,1.6,73,0.00,,---,0.00,VWS V13.01,2013-04-23 14:05:00,
2013-04-23 10:06:00,40.6,32.7,29.65,East,90,1.3,1.6,73,0.00,,---,0.00,VWS V13.01,2013-04-23 14:06:00,
2013-04-23 10:07:00,40.6,32.7,29.65,NW,315,0.0,1.3,73,0.00,,---,0.00,VWS V13.01,2013-04-23 14:07:00,
2013-04-23 10:09:00,40.6,32.7,29.65,ESE,112,2.9,3.1,73,0.00,,---,0.00,VWS V13.01,2013-04-23 14:09:00,
2013-04-23 10:11:00,40.6,32.7,29.65,ESE,112,2.9,2.9,73,0.00,,---,0.00,VWS V13.01,2013-04-23 14:11:00,
2013-04-23 10:12:00,40.6,32.7,29.65,West,270,1.1,1.1,73,0.00,,---,0.00,VWS V13.01,2013-04-23 14:12:00,
2013-04-23 10:14:00,40.6,32.7,29.65,NNW,338,0.9,1.6,73,0.00,,---,0.00,VWS V13.01,2013-04-23 14:14:00,
2013-04-23 10:16:00,40.6,32.7,29.65,West,270,0.0,0.0,73,0.00,,---,0.00,VWS V13.01,2013-04-23 14:16:00,
2013-04-23 10:17:00,40.6,32.7,29.65,SSE,158,0.9,0.9,73,0.00,,---,0.00,VWS V13.01,2013-04-23 14:17:00,
2013-04-23 10:19:00,41.0,32.7,29.65,SSE,158,1.3,1.3,72,0.00,,---,0.00,VWS V13.01,2013-04-23 14:19:00,
2013-04-23 10:21:00,41.0,32.7,29.65,SSE,158,1.3,1.3,72,0.00,,---,0.00,VWS V13.01,2013-04-23 14:21:00,
2013-04-23 10:22:00,41.0,32.7,29.65,SE,135,1.1,1.1,72,0.00,,---,0.00,VWS V13.01,2013-04-23 14:22:00,
2013-04-23 10:23:00,41.0,32.7,29.65,SE,135,1.1,1.1,72,0.00,,---,0.00,VWS V13.01,2013-04-23 14:23:00,
2013-04-23 10:24:00,41.0,32.7,29.65,South,180,0.0,3.4,72,0.00,,---,0.00,VWS V13.01,2013-04-23 14:24:00,
2013-04-23 10:26:00,41.0,32.7,29.65,North,0,2.9,2.9,72,0.00,,---,0.00,VWS V13.01,2013-04-23 14:26:00,
2013-04-23 10:27:00,41.0,32.7,29.65,North,0,2.9,2.9,72,0.00,,---,0.00,VWS V13.01,2013-04-23 14:27:00,
2013-04-23 10:28:00,41.0,32.7,29.65,North,0,1.6,2.9,72,0.00,,---,0.00,VWS V13.01,2013-04-23 14:28:00,
2013-04-23 10:30:00,41.0,32.7,29.65,ENE,68,1.1,1.1,72,0.00,,---,0.00,VWS V13.01,2013-04-23 14:30:00,
2013-04-23 10:31:00,41.0,32.7,29.65,NNE,22,1.6,1.6,72,0.00,,---,0.00,VWS V13.01,2013-04-23 14:31:00,
2013-04-23 10:32:00,41.0,32.7,29.65,NNE,22,2.0,2.0,72,0.00,,---,0.00,VWS V13.01,2013-04-23 14:32:00,
2013-04-23 10:33:00,41.0,32.7,29.65,SSW,202,0.0,2.0,72,0.00,,---,0.00,VWS V13.01,2013-04-23 14:33:00,
2013-04-23 10:35:00,41.0,33.0,29.65,NNW,338,2.9,2.9,73,0.00,,---,0.00,VWS V13.01,2013-04-23 14:35:00,
2013-04-23 10:36:00,41.0,33.0,29.65,ENE,68,1.3,2.9,73,0.00,,---,0.00,VWS V13.01,2013-04-23 14:36:00,
2013-04-23 10:37:00,41.0,33.0,29.65,ENE,68,1.3,2.9,73,0.00,,---,0.00,VWS V13.01,2013-04-23 14:37:00,
2013-04-23 10:38:00,41.0,33.0,29.65,NW,315,2.9,2.9,73,0.00,,---,0.00,VWS V13.01,2013-04-23 14:38:00,
2013-04-23 10:40:00,40.5,32.8,29.65,ENE,68,0.9,1.1,74,0.00,,---,0.00,VWS V13.01,2013-04-23 14:40:00,
2013-04-23 10:42:00,40.5,32.8,29.65,East,90,2.2,2.2,74,0.00,,---,0.00,VWS V13.01,2013-04-23 14:42:00,
2013-04-23 10:43:00,40.5,32.8,29.65,NNE,22,2.9,2.9,74,0.00,,---,0.00,VWS V13.01,2013-04-23 14:43:00,
2013-04-23 10:45:00,40.5,32.8,29.65,NE,45,1.6,1.6,74,0.00,,---,0.00,VWS V13.01,2013-04-23 14:45:00,
2013-04-23 10:47:00,40.5,32.8,29.65,NNW,338,2.7,2.7,74,0.00,,---,0.00,VWS V13.01,2013-04-23 14:47:00,
2013-04-23 10:48:00,40.5,32.8,29.65,South,180,1.1,1.1,74,0.00,,---,0.00,VWS V13.01,2013-04-23 14:48:00,
2013-04-23 10:50:00,41.0,33.7,29.65,NNW,338,2.7,2.7,75,0.00,,---,0.00,VWS V13.01,2013-04-23 14:50:00,
2013-04-23 10:52:00,41.0,33.7,29.65,WNW,292,2.9,2.9,75,0.00,,---,0.00,VWS V13.01,2013-04-23 14:52:00,
2013-04-23 10:53:00,41.0,33.7,29.65,North,0,1.3,2.7,75,0.00,,---,0.00,VWS V13.01,2013-04-23 14:53:00,
2013-04-23 10:54:00,41.0,33.7,29.65,North,0,1.3,2.7,75,0.00,,---,0.00,VWS V13.01,2013-04-23 14:54:00,
2013-04-23 10:56:00,40.8,33.8,29.65,NW,315,2.5,2.5,76,0.00,,---,0.00,VWS V13.01,2013-04-23 14:56:00,
2013-04-23 10:57:00,40.6,33.7,29.65,ENE,68,0.0,3.1,76,0.00,,---,0.00,VWS V13.01,2013-04-23 14:57:00,
2013-04-23 10:58:00,40.6,33.7,29.65,NNW,338,2.0,2.0,76,0.00,,---,0.00,VWS V13.01,2013-04-23 14:58:00,
2013-04-23 10:59:00,40.6,33.7,29.65,East,90,2.2,2.2,76,0.00,,---,0.00,VWS V13.01,2013-04-23 14:59:00,
2013-04-23 11:01:00,40.6,33.7,29.65,ENE,68,0.0,0.0,76,0.00,,---,0.00,VWS V13.01,2013-04-23 15:01:00,
2013-04-23 11:02:00,40.6,33.7,29.65,NE,45,1.6,1.6,76,0.00,,---,0.00,VWS V13.01,2013-04-23 15:02:00,
2013-04-23 11:03:00,40.6,33.7,29.65,NE,45,3.1,3.1,76,0.00,,---,0.00,VWS V13.01,2013-04-23 15:03:00,
2013-04-23 11:04:00,40.6,33.7,29.65,South,180,0.0,3.1,76,0.00,,---,0.00,VWS V13.01,2013-04-23 15:04:00,
2013-04-23 11:06:00,40.6,33.7,29.65,NNW,338,2.5,2.5,76,0.00,,---,0.00,VWS V13.01,2013-04-23 15:06:00,
2013-04-23 11:07:00,40.6,33.7,29.65,SSW,202,0.0,2.5,76,0.00,,---,0.00,VWS V13.01,2013-04-23 15:07:00,
2013-04-23 11:08:00,41.0,34.0,29.65,NNW,338,0.0,0.0,76,0.00,,---,0.00,VWS V13.01,2013-04-23 15:08:00,
2013-04-23 11:09:00,41.0,34.0,29.65,East,90,2.0,2.0,76,0.00,,---,0.00,VWS V13.01,2013-04-23 15:09:00,
2013-04-23 11:11:00,41.0,34.0,29.65,North,0,1.6,1.6,76,0.00,,---,0.00,VWS V13.01,2013-04-23 15:11:00,
2013-04-23 11:12:00,40.8,33.8,29.65,North,0,1.6,1.6,76,0.00,,---,0.00,VWS V13.01,2013-04-23 15:12:00,
2013-04-23 11:13:00,40.8,33.8,29.65,ENE,68,3.1,3.1,76,0.00,,---,0.00,VWS V13.01,2013-04-23 15:13:00,
2013-04-23 11:14:00,40.8,33.8,29.65,NE,45,1.1,3.1,76,0.00,,---,0.00,VWS V13.01,2013-04-23 15:14:00,
2013-04-23 11:17:00,40.8,33.8,29.65,SW,225,1.3,1.3,76,0.00,,---,0.00,VWS V13.01,2013-04-23 15:17:00,
2013-04-23 11:18:00,41.0,34.0,29.65,ENE,68,4.7,4.7,76,0.00,,---,0.00,VWS V13.01,2013-04-23 15:18:00,
2013-04-23 11:19:00,41.0,34.0,29.65,NNW,338,1.6,4.7,76,0.00,,---,0.00,VWS V13.01,2013-04-23 15:19:00,
2013-04-23 11:22:00,41.0,34.0,29.65,WSW,248,0.0,0.0,76,0.00,,---,0.00,VWS V13.01,2013-04-23 15:22:00,
2013-04-23 11:24:00,40.8,33.8,29.65,North,0,2.5,2.5,76,0.00,,---,0.00,VWS V13.01,2013-04-23 15:24:00,
2013-04-23 11:25:00,40.8,33.8,29.65,ENE,68,0.0,2.5,76,0.00,,---,0.00,VWS V13.01,2013-04-23 15:25:00,
2013-04-23 11:27:00,40.8,33.8,29.65,NNE,22,2.5,2.5,76,0.00,,---,0.00,VWS V13.01,2013-04-23 15:27:00,
2013-04-23 11:28:00,40.8,33.8,29.65,NE,45,1.1,2.5,76,0.00,,---,0.00,VWS V13.01,2013-04-23 15:28:00,
2013-04-23 11:30:00,41.0,34.0,29.65,ENE,68,2.2,2.9,76,0.00,,---,0.00,VWS V13.01,2013-04-23 15:30:00,
2013-04-23 11:32:00,41.0,34.0,29.65,ESE,112,3.1,3.1,76,0.00,,---,0.00,VWS V13.01,2013-04-23 15:32:00,
2013-04-23 11:33:00,41.0,34.0,29.65,ESE,112,3.1,3.1,76,0.00,,---,0.00,VWS V13.01,2013-04-23 15:33:00,
2013-04-23 11:35:00,41.0,34.0,29.65,SSE,158,0.0,2.7,76,0.00,,---,0.00,VWS V13.01,2013-04-23 15:35:00,
2013-04-23 11:37:00,41.0,34.0,29.65,SE,135,0.0,0.0,76,0.00,,---,0.00,VWS V13.01,2013-04-23 15:37:00,
2013-04-23 11:38:00,41.0,34.0,29.65,South,180,0.9,0.9,76,0.00,,---,0.00,VWS V13.01,2013-04-23 15:38:00,
2013-04-23 11:40:00,41.0,34.0,29.65,ESE,112,1.6,1.6,76,0.00,,---,0.00,VWS V13.01,2013-04-23 15:40:00,
2013-04-23 11:43:00,41.2,34.2,29.65,SE,135,1.1,3.1,76,0.00,,---,0.00,VWS V13.01,2013-04-23 15:43:00,
2013-04-23 11:45:00,41.2,34.2,29.65,SE,135,0.0,1.6,76,0.00,,---,0.00,VWS V13.01,2013-04-23 15:45:00,
2013-04-23 11:48:00,41.7,34.7,29.65,SW,225,1.6,1.6,76,0.00,,---,0.00,VWS V13.01,2013-04-23 15:48:00,
2013-04-23 11:50:00,41.7,34.7,29.65,East,90,0.0,0.0,76,0.00,,---,0.00,VWS V13.01,2013-04-23 15:50:00,
2013-04-23 11:53:00,41.7,34.7,29.65,ENE,68,0.0,0.0,76,0.00,,---,0.00,VWS V13.01,2013-04-23 15:53:00,
2013-04-23 11:55:00,41.7,34.7,29.65,North,0,0.9,0.9,76,0.00,,---,0.00,VWS V13.01,2013-04-23 15:55:00,
2013-04-23 11:58:00,41.7,34.7,29.65,NNE,22,2.0,2.0,76,0.00,,---,0.00,VWS V13.01,2013-04-23 15:58:00,
2013-04-23 12:00:00,41.7,34.7,29.65,NE,45,1.1,2.9,76,0.00,,---,0.00,VWS V13.01,2013-04-23 16:00:00,
2013-04-23 12:03:00,41.7,34.7,29.65,East,90,0.0,2.0,76,0.00,,---,0.00,VWS V13.01,2013-04-23 16:03:00,
2013-04-23 12:04:00,41.7,34.7,29.65,NNE,22,1.6,1.6,76,0.00,,---,0.00,VWS V13.01,2013-04-23 16:04:00,
2013-04-23 12:05:00,42.3,35.2,29.62,North,0,1.6,1.6,76,0.00,,---,0.00,VWS V13.01,2013-04-23 16:05:00,
2013-04-23 12:08:00,42.3,35.2,29.62,East,90,0.9,0.9,76,0.00,,---,0.00,VWS V13.01,2013-04-23 16:08:00,
2013-04-23 12:09:00,42.3,35.2,29.62,ESE,112,2.2,2.2,76,0.00,,---,0.00,VWS V13.01,2013-04-23 16:09:00,
2013-04-23 12:10:00,42.8,35.4,29.62,ESE,112,1.6,1.6,75,0.00,,---,0.00,VWS V13.01,2013-04-23 16:10:00,
2013-04-23 12:11:00,42.8,35.4,29.62,ESE,112,1.6,1.6,75,0.00,,---,0.00,VWS V13.01,2013-04-23 16:11:00,
2013-04-23 12:13:00,42.8,35.4,29.62,NW,315,1.1,3.1,75,0.00,,---,0.00,VWS V13.01,2013-04-23 16:13:00,
2013-04-23 12:14:00,42.8,35.4,29.62,North,0,2.9,2.9,75,0.00,,---,0.00,VWS V13.01,2013-04-23 16:14:00,
2013-04-23 12:15:00,42.8,35.4,29.62,SW,225,0.0,2.9,75,0.00,,---,0.00,VWS V13.01,2013-04-23 16:15:00,
2013-04-23 12:16:00,42.8,35.4,29.62,North,0,2.0,2.0,75,0.00,,---,0.00,VWS V13.01,2013-04-23 16:16:00,
2013-04-23 12:18:00,42.8,35.4,29.62,ESE,112,1.1,1.6,75,0.00,,---,0.00,VWS V13.01,2013-04-23 16:18:00,
2013-04-23 12:19:00,42.8,35.4,29.62,ESE,112,1.1,1.6,75,0.00,,---,0.00,VWS V13.01,2013-04-23 16:19:00,
2013-04-23 12:20:00,43.3,35.6,29.62,ENE,68,2.9,2.9,74,0.00,,---,0.00,VWS V13.01,2013-04-23 16:20:00,
2013-04-23 12:22:00,43.3,35.6,29.62,SE,135,2.0,2.0,74,0.00,,---,0.00,VWS V13.01,2013-04-23 16:22:00,
2013-04-23 12:24:00,43.3,35.6,29.62,North,0,1.6,3.4,74,0.00,,---,0.00,VWS V13.01,2013-04-23 16:24:00,
2013-04-23 12:26:00,43.3,35.6,29.62,East,90,1.6,3.4,74,0.00,,---,0.00,VWS V13.01,2013-04-23 16:26:00,
2013-04-23 12:27:00,43.3,35.6,29.62,NNE,22,4.0,4.0,74,0.00,,---,0.00,VWS V13.01,2013-04-23 16:27:00,
2013-04-23 12:29:00,43.3,35.6,29.62,NNE,22,0.0,0.0,74,0.00,,---,0.00,VWS V13.01,2013-04-23 16:29:00,
2013-04-23 12:31:00,43.3,35.6,29.62,NNE,22,1.6,2.2,74,0.00,,---,0.00,VWS V13.01,2013-04-23 16:31:00,
2013-04-23 12:32:00,43.3,35.6,29.62,NE,45,2.5,2.5,74,0.00,,---,0.00,VWS V13.01,2013-04-23 16:32:00,
2013-04-23 12:34:00,43.3,35.6,29.62,ENE,68,3.1,3.1,74,0.00,,---,0.00,VWS V13.01,2013-04-23 16:34:00,
2013-04-23 12:36:00,43.3,35.6,29.62,West,270,1.6,1.6,74,0.00,,---,0.00,VWS V13.01,2013-04-23 16:36:00,
2013-04-23 12:37:00,43.3,35.6,29.62,SW,225,0.0,0.0,74,0.00,,---,0.00,VWS V13.01,2013-04-23 16:37:00,
2013-04-23 12:39:00,43.3,35.6,29.62,East,90,0.0,0.0,74,0.00,,---,0.00,VWS V13.01,2013-04-23 16:39:00,
2013-04-23 12:41:00,44.1,36.0,29.62,NNW,338,2.7,2.7,73,0.00,,---,0.00,VWS V13.01,2013-04-23 16:41:00,
2013-04-23 12:42:00,44.1,36.0,29.62,NNE,22,2.0,2.0,73,0.00,,---,0.00,VWS V13.01,2013-04-23 16:42:00,
2013-04-23 12:44:00,44.1,36.0,29.62,ENE,68,0.9,3.4,73,0.00,,---,0.00,VWS V13.01,2013-04-23 16:44:00,
2013-04-23 12:46:00,44.1,35.6,29.62,NNE,22,1.3,1.3,72,0.00,,---,0.00,VWS V13.01,2013-04-23 16:46:00,
2013-04-23 12:47:00,44.1,35.6,29.62,NNW,338,2.9,2.9,72,0.00,,---,0.00,VWS V13.01,2013-04-23 16:47:00,
2013-04-23 12:49:00,44.1,35.6,29.62,South,180,0.0,0.0,72,0.00,,---,0.00,VWS V13.01,2013-04-23 16:49:00,
2013-04-23 12:52:00,44.1,35.6,29.62,NNW,338,1.6,1.6,72,0.00,,---,0.00,VWS V13.01,2013-04-23 16:52:00,
2013-04-23 12:54:00,44.1,35.6,29.59,North,0,2.0,2.0,72,0.00,,---,0.00,VWS V13.01,2013-04-23 16:54:00,
2013-04-23 12:55:00,44.1,35.6,29.59,North,0,2.0,2.0,72,0.00,,---,0.00,VWS V13.01,2013-04-23 16:55:00,
2013-04-23 12:57:00,44.1,35.6,29.59,ENE,68,3.4,5.8,72,0.00,,---,0.00,VWS V13.01,2013-04-23 16:57:00,
2013-04-23 12:59:00,44.1,35.6,29.59,SW,225,1.1,1.6,72,0.00,,---,0.00,VWS V13.01,2013-04-23 16:59:00,
2013-04-23 13:00:00,44.1,35.6,29.59,SW,225,1.1,1.6,72,0.00,,---,0.00,VWS V13.01,2013-04-23 17:00:00,
2013-04-23 13:02:00,44.1,35.6,29.59,East,90,0.0,1.1,72,0.00,,---,0.00,VWS V13.01,2013-04-23 17:02:00,
2013-04-23 13:05:00,44.2,35.8,29.59,East,90,0.0,0.0,72,0.00,,---,0.00,VWS V13.01,2013-04-23 17:05:00,
2013-04-23 13:07:00,44.2,35.8,29.59,WSW,248,2.7,2.7,72,0.00,,---,0.00,VWS V13.01,2013-04-23 17:07:00,
2013-04-23 13:10:00,44.6,35.8,29.56,NW,315,2.9,2.9,71,0.00,,---,0.00,VWS V13.01,2013-04-23 17:10:00,
2013-04-23 13:12:00,44.6,35.8,29.56,NW,315,5.4,5.4,71,0.00,,---,0.00,VWS V13.01,2013-04-23 17:12:00,
2013-04-23 13:13:00,44.6,35.8,29.56,NE,45,2.2,5.4,71,0.00,,---,0.00,VWS V13.01,2013-04-23 17:13:00,
2013-04-23 13:15:00,44.6,35.8,29.56,SSE,158,2.0,2.0,71,0.00,,---,0.00,VWS V13.01,2013-04-23 17:15:00,
2013-04-23 13:17:00,44.6,35.8,29.56,SSW,202,0.0,0.0,71,0.00,,---,0.00,VWS V13.01,2013-04-23 17:17:00,
2013-04-23 13:18:00,44.6,35.8,29.56,NNW,338,0.9,0.9,71,0.00,,---,0.00,VWS V13.01,2013-04-23 17:18:00,
2013-04-23 13:20:00,44.6,35.8,29.56,East,90,2.5,2.5,71,0.00,,---,0.00,VWS V13.01,2013-04-23 17:20:00,
2013-04-23 13:22:00,44.6,35.8,29.56,WNW,292,0.0,1.6,71,0.00,,---,0.00,VWS V13.01,2013-04-23 17:22:00,
2013-04-23 13:23:00,44.6,35.8,29.56,WNW,292,2.2,2.2,71,0.00,,---,0.00,VWS V13.01,2013-04-23 17:23:00,
2013-04-23 13:25:00,44.6,35.8,29.56,NNE,22,2.7,2.7,71,0.00,,---,0.00,VWS V13.01,2013-04-23 17:25:00,
2013-04-23 13:28:00,44.6,35.8,29.56,NNW,338,1.6,1.6,71,0.00,,---,0.00,VWS V13.01,2013-04-23 17:28:00,
2013-04-23 13:29:00,44.6,35.8,29.56,WNW,292,1.3,2.9,71,0.00,,---,0.00,VWS V13.01,2013-04-23 17:29:00,
2013-04-23 13:30:00,44.6,35.8,29.56,SE,135,1.1,1.3,71,0.00,,---,0.00,VWS V13.01,2013-04-23 17:30:00,
2013-04-23 13:31:00,44.6,35.8,29.56,SSE,158,1.1,1.1,71,0.00,,---,0.00,VWS V13.01,2013-04-23 17:31:00,
2013-04-23 13:33:00,44.6,35.8,29.56,WNW,292,3.6,3.6,71,0.00,,---,0.00,VWS V13.01,2013-04-23 17:33:00,
2013-04-23 13:34:00,44.6,35.8,29.56,East,90,1.3,1.3,71,0.00,,---,0.00,VWS V13.01,2013-04-23 17:34:00,
2013-04-23 13:35:00,44.6,35.8,29.56,ESE,112,0.9,0.9,71,0.00,,---,0.00,VWS V13.01,2013-04-23 17:35:00,
2013-04-23 13:36:00,44.6,35.8,29.56,SE,135,0.0,0.0,71,0.00,,---,0.00,VWS V13.01,2013-04-23 17:36:00,
2013-04-23 13:38:00,44.6,35.8,29.56,SE,135,2.2,2.2,71,0.00,,---,0.00,VWS V13.01,2013-04-23 17:38:00,
2013-04-23 13:39:00,44.6,35.8,29.56,South,180,1.1,1.1,71,0.00,,---,0.00,VWS V13.01,2013-04-23 17:39:00,
2013-04-23 13:40:00,44.6,35.8,29.56,ESE,112,1.1,1.1,71,0.00,,---,0.00,VWS V13.01,2013-04-23 17:40:00,
2013-04-23 13:41:00,44.6,35.8,29.56,East,90,1.3,1.3,71,0.00,,---,0.00,VWS V13.01,2013-04-23 17:41:00,
2013-04-23 13:43:00,44.6,35.8,29.56,NNE,22,2.5,2.5,71,0.00,,---,0.00,VWS V13.01,2013-04-23 17:43:00,
2013-04-23 13:44:00,44.6,35.8,29.56,NNW,338,1.6,2.5,71,0.00,,---,0.00,VWS V13.01,2013-04-23 17:44:00,
2013-04-23 13:45:00,44.6,35.8,29.56,East,90,0.9,0.9,71,0.00,,---,0.00,VWS V13.01,2013-04-23 17:45:00,
2013-04-23 13:46:00,44.6,35.8,29.56,East,90,2.0,2.0,71,0.00,,---,0.00,VWS V13.01,2013-04-23 17:46:00,
2013-04-23 13:48:00,44.6,35.8,29.56,NNW,338,2.7,2.7,71,0.00,,---,0.00,VWS V13.01,2013-04-23 17:48:00,
2013-04-23 13:49:00,44.6,35.8,29.56,SW,225,1.6,1.6,71,0.00,,---,0.00,VWS V13.01,2013-04-23 17:49:00,
2013-04-23 13:50:00,44.6,35.8,29.56,East,90,1.1,2.7,71,0.00,,---,0.00,VWS V13.01,2013-04-23 17:50:00,
2013-04-23 13:51:00,45.9,36.3,29.56,SSW,202,0.0,1.1,69,0.00,,---,0.00,VWS V13.01,2013-04-23 17:51:00,
2013-04-23 13:53:00,45.9,36.3,29.56,NW,315,1.1,2.0,69,0.00,,---,0.00,VWS V13.01,2013-04-23 17:53:00,
2013-04-23 13:54:00,45.9,36.3,29.56,NW,315,1.1,1.1,69,0.00,,---,0.00,VWS V13.01,2013-04-23 17:54:00,
2013-04-23 13:55:00,45.9,35.9,29.56,ENE,68,2.9,2.9,68,0.00,,---,0.00,VWS V13.01,2013-04-23 17:55:00,
2013-04-23 13:56:00,45.9,35.9,29.56,NNE,22,1.1,2.9,68,0.00,,---,0.00,VWS V13.01,2013-04-23 17:56:00,
2013-04-23 13:58:00,45.9,35.9,29.56,NW,315,0.0,2.5,68,0.00,,---,0.00,VWS V13.01,2013-04-23 17:58:00,
2013-04-23 13:59:00,45.9,35.9,29.56,North,0,1.3,1.3,68,0.00,,---,0.00,VWS V13.01,2013-04-23 17:59:00,
2013-04-23 14:00:00,45.9,35.9,29.56,North,0,1.3,1.3,68,0.00,,---,0.00,VWS V13.01,2013-04-23 18:00:00,
2013-04-23 14:01:00,45.9,35.9,29.56,North,0,3.1,3.1,68,0.00,,---,0.00,VWS V13.01,2013-04-23 18:01:00,
2013-04-23 14:02:00,45.9,35.9,29.56,North,0,3.1,3.1,68,0.00,,---,0.00,VWS V13.01,2013-04-23 18:02:00,
2013-04-23 14:03:00,45.9,35.9,29.56,NW,315,1.3,1.3,68,0.00,,---,0.00,VWS V13.01,2013-04-23 18:03:00,
2013-04-23 14:04:00,45.9,35.9,29.56,WNW,292,2.0,2.0,68,0.00,,---,0.00,VWS V13.01,2013-04-23 18:04:00,
2013-04-23 14:05:00,45.9,35.9,29.56,NE,45,2.5,2.5,68,0.00,,---,0.00,VWS V13.01,2013-04-23 18:05:00,
2013-04-23 14:06:00,45.9,35.9,29.56,NNE,22,1.6,2.5,68,0.00,,---,0.00,VWS V13.01,2013-04-23 18:06:00,
2013-04-23 14:07:00,45.9,35.9,29.56,East,90,0.0,1.6,68,0.00,,---,0.00,VWS V13.01,2013-04-23 18:07:00,
2013-04-23 14:08:00,45.9,35.9,29.56,East,90,0.0,0.0,68,0.00,,---,0.00,VWS V13.01,2013-04-23 18:08:00,
2013-04-23 14:09:00,46.6,36.6,29.56,NNW,338,1.3,1.3,68,0.00,,---,0.00,VWS V13.01,2013-04-23 18:09:00,
2013-04-23 14:10:00,46.6,36.6,29.56,NNW,338,0.0,1.3,68,0.00,,---,0.00,VWS V13.01,2013-04-23 18:10:00,
2013-04-23 14:11:00,46.6,36.6,29.56,North,0,2.0,2.0,68,0.00,,---,0.00,VWS V13.01,2013-04-23 18:11:00,
2013-04-23 14:12:00,46.6,36.6,29.56,East,90,2.5,2.5,68,0.00,,---,0.00,VWS V13.01,2013-04-23 18:12:00,
2013-04-23 14:13:00,46.6,36.6,29.56,SSE,158,0.9,0.9,68,0.00,,---,0.00,VWS V13.01,2013-04-23 18:13:00,
2013-04-23 14:14:00,46.6,36.6,29.56,SSW,202,1.3,2.2,68,0.00,,---,0.00,VWS V13.01,2013-04-23 18:14:00,
2013-04-23 14:15:00,46.6,36.6,29.56,North,0,1.6,1.6,68,0.00,,---,0.00,VWS V13.01,2013-04-23 18:15:00,
2013-04-23 14:16:00,46.6,36.6,29.56,ENE,68,2.0,2.0,68,0.00,,---,0.00,VWS V13.01,2013-04-23 18:16:00,
2013-04-23 14:17:00,46.6,36.6,29.56,ENE,68,2.0,2.0,68,0.00,,---,0.00,VWS V13.01,2013-04-23 18:17:00,
2013-04-23 14:18:00,46.6,36.6,29.56,East,90,2.0,2.7,68,0.00,,---,0.00,VWS V13.01,2013-04-23 18:18:00,
2013-04-23 14:20:00,46.6,36.6,29.56,WNW,292,1.6,2.0,68,0.00,,---,0.00,VWS V13.01,2013-04-23 18:20:00,
2013-04-23 14:21:00,46.6,36.6,29.56,NE,45,3.1,3.1,68,0.00,,---,0.00,VWS V13.01,2013-04-23 18:21:00,
2013-04-23 14:22:00,46.9,36.6,29.56,NW,315,2.7,3.1,67,0.00,,---,0.00,VWS V13.01,2013-04-23 18:22:00,
2013-04-23 14:24:00,46.9,36.6,29.56,NNE,22,2.9,3.8,67,0.00,,---,0.00,VWS V13.01,2013-04-23 18:24:00,
2013-04-23 14:25:00,46.9,36.6,29.56,NE,45,3.8,3.8,67,0.00,,---,0.00,VWS V13.01,2013-04-23 18:25:00,
2013-04-23 14:26:00,46.9,36.6,29.56,North,0,4.3,4.3,67,0.00,,---,0.00,VWS V13.01,2013-04-23 18:26:00,
2013-04-23 14:27:00,46.8,36.4,29.56,NE,45,2.9,4.3,67,0.00,,---,0.00,VWS V13.01,2013-04-23 18:27:00,
2013-04-23 14:29:00,46.8,36.4,29.56,North,0,1.6,1.6,67,0.00,,---,0.00,VWS V13.01,2013-04-23 18:29:00,
2013-04-23 14:30:00,46.8,36.4,29.56,North,0,3.8,3.8,67,0.00,,---,0.00,VWS V13.01,2013-04-23 18:30:00,
2013-04-23 14:31:00,46.8,36.4,29.56,NW,315,4.3,4.3,67,0.00,,---,0.00,VWS V13.01,2013-04-23 18:31:00,
2013-04-23 14:32:00,46.8,36.4,29.56,East,90,2.7,4.3,67,0.00,,---,0.00,VWS V13.01,2013-04-23 18:32:00,
2013-04-23 14:33:00,46.8,36.4,29.56,East,90,2.7,4.3,67,0.00,,---,0.00,VWS V13.01,2013-04-23 18:33:00,
2013-04-23 14:34:00,46.8,36.4,29.56,NNE,22,4.0,4.0,67,0.00,,---,0.00,VWS V13.01,2013-04-23 18:34:00,
2013-04-23 14:35:00,46.8,36.4,29.56,NNE,22,3.8,4.0,67,0.00,,---,0.00,VWS V13.01,2013-04-23 18:35:00,
2013-04-23 14:36:00,46.8,36.4,29.56,NNE,22,3.8,3.8,67,0.00,,---,0.00,VWS V13.01,2013-04-23 18:36:00,
2013-04-23 14:37:00,46.8,36.4,29.56,NE,45,2.0,2.0,67,0.00,,---,0.00,VWS V13.01,2013-04-23 18:37:00,
2013-04-23 14:38:00,46.8,36.4,29.56,NE,45,2.0,2.0,67,0.00,,---,0.00,VWS V13.01,2013-04-23 18:38:00,
2013-04-23 14:40:00,46.8,36.4,29.56,SE,135,1.1,1.6,67,0.00,,---,0.00,VWS V13.01,2013-04-23 18:40:00,
2013-04-23 14:41:00,46.8,36.4,29.56,NNW,338,2.9,2.9,67,0.00,,---,0.00,VWS V13.01,2013-04-23 18:41:00,
2013-04-23 14:42:00,46.8,36.4,29.56,South,180,2.2,2.7,67,0.00,,---,0.00,VWS V13.01,2013-04-23 18:42:00,
2013-04-23 14:43:00,46.8,36.4,29.56,South,180,2.2,2.7,67,0.00,,---,0.00,VWS V13.01,2013-04-23 18:43:00,
2013-04-23 14:45:00,47.1,36.7,29.56,East,90,2.7,2.7,67,0.00,,---,0.00,VWS V13.01,2013-04-23 18:45:00,
2013-04-23 14:46:00,47.1,36.7,29.56,East,90,0.0,0.0,67,0.00,,---,0.00,VWS V13.01,2013-04-23 18:46:00,
2013-04-23 14:48:00,47.3,36.9,29.56,East,90,0.0,0.0,67,0.00,,---,0.00,VWS V13.01,2013-04-23 18:48:00,
2013-04-23 14:50:00,47.3,36.5,29.56,NNE,22,0.0,1.1,66,0.00,,---,0.00,VWS V13.01,2013-04-23 18:50:00,
2013-04-23 14:52:00,47.3,36.5,29.56,ENE,68,2.7,2.7,66,0.00,,---,0.00,VWS V13.01,2013-04-23 18:52:00,
2013-04-23 14:53:00,47.3,36.5,29.56,ENE,68,2.7,2.7,66,0.00,,---,0.00,VWS V13.01,2013-04-23 18:53:00,
2013-04-23 14:55:00,47.3,36.5,29.53,WSW,248,2.0,2.0,66,0.00,,---,0.00,VWS V13.01,2013-04-23 18:55:00,
2013-04-23 14:57:00,47.3,36.5,29.53,NNW,338,2.5,2.5,66,0.00,,---,0.00,VWS V13.01,2013-04-23 18:57:00,
2013-04-23 14:58:00,47.3,36.5,29.53,WNW,292,2.5,2.5,66,0.00,,---,0.00,VWS V13.01,2013-04-23 18:58:00,
2013-04-23 15:00:00,47.3,36.5,29.53,ESE,112,1.3,1.3,66,0.00,,---,0.00,VWS V13.01,2013-04-23 19:00:00,
2013-04-23 15:02:00,47.3,36.5,29.53,ESE,112,0.0,0.0,66,0.00,,---,0.00,VWS V13.01,2013-04-23 19:02:00,
2013-04-23 15:03:00,47.3,36.5,29.53,WNW,292,0.0,1.6,66,0.00,,---,0.00,VWS V13.01,2013-04-23 19:03:00,
2013-04-23 15:05:00,47.3,36.5,29.53,SW,225,2.0,2.0,66,0.00,,---,0.00,VWS V13.01,2013-04-23 19:05:00,
2013-04-23 15:07:00,47.3,36.5,29.53,East,90,0.0,1.1,66,0.00,,---,0.00,VWS V13.01,2013-04-23 19:07:00,
2013-04-23 15:08:00,47.3,36.5,29.53,East,90,2.9,2.9,66,0.00,,---,0.00,VWS V13.01,2013-04-23 19:08:00,
2013-04-23 15:10:00,47.3,36.5,29.53,NE,45,2.2,2.2,66,0.00,,---,0.00,VWS V13.01,2013-04-23 19:10:00,
2013-04-23 15:13:00,47.3,36.5,29.53,NE,45,0.0,2.5,66,0.00,,---,0.00,VWS V13.01,2013-04-23 19:13:00,
2013-04-23 15:15:00,47.3,36.5,29.53,North,0,1.1,1.1,66,0.00,,---,0.00,VWS V13.01,2013-04-23 19:15:00,
2013-04-23 15:16:00,47.3,36.5,29.53,NNE,22,4.7,4.7,66,0.00,,---,0.00,VWS V13.01,2013-04-23 19:16:00,
2013-04-23 15:18:00,46.9,36.2,29.53,SSE,158,2.9,2.9,66,0.00,,---,0.00,VWS V13.01,2013-04-23 19:18:00,
2013-04-23 15:19:00,46.9,36.2,29.53,SSE,158,2.9,2.9,66,0.00,,---,0.00,VWS V13.01,2013-04-23 19:19:00,
2013-04-23 15:20:00,46.9,36.2,29.53,WSW,248,0.0,1.3,66,0.00,,---,0.00,VWS V13.01,2013-04-23 19:20:00,
2013-04-23 15:21:00,46.9,36.2,29.53,WSW,248,0.0,0.0,66,0.00,,---,0.00,VWS V13.01,2013-04-23 19:21:00,
2013-04-23 15:23:00,46.9,36.2,29.53,NE,45,1.6,1.6,66,0.00,,---,0.00,VWS V13.01,2013-04-23 19:23:00,
2013-04-23 15:24:00,46.9,36.2,29.53,NE,45,2.7,2.7,66,0.00,,---,0.00,VWS V13.01,2013-04-23 19:24:00,
2013-04-23 15:25:00,46.9,36.2,29.53,ESE,112,2.7,4.5,66,0.00,,---,0.00,VWS V13.01,2013-04-23 19:25:00,
2013-04-23 15:26:00,46.9,36.2,29.53,ESE,112,2.7,2.7,66,0.00,,---,0.00,VWS V13.01,2013-04-23 19:26:00,
2013-04-23 15:28:00,46.9,36.2,29.53,East,90,0.0,0.0,66,0.00,,---,0.00,VWS V13.01,2013-04-23 19:28:00,
2013-04-23 15:29:00,46.9,36.2,29.53,ENE,68,1.6,1.6,66,0.00,,---,0.00,VWS V13.01,2013-04-23 19:29:00,
2013-04-23 15:30:00,46.9,36.2,29.53,ENE,68,0.9,1.6,66,0.00,,---,0.00,VWS V13.01,2013-04-23 19:30:00,
2013-04-23 15:32:00,47.1,36.4,29.53,ENE,68,2.5,2.5,66,0.00,,---,0.00,VWS V13.01,2013-04-23 19:32:00,
2013-04-23 15:33:00,47.1,36.4,29.53,NNE,22,0.0,2.5,66,0.00,,---,0.00,VWS V13.01,2013-04-23 19:33:00,
2013-04-23 15:34:00,47.1,36.4,29.53,East,90,0.0,0.0,66,0.00,,---,0.00,VWS V13.01,2013-04-23 19:34:00,
2013-04-23 15:35:00,47.1,36.4,29.53,East,90,1.6,1.6,66,0.00,,---,0.00,VWS V13.01,2013-04-23 19:35:00,
2013-04-23 15:37:00,47.1,36.4,29.53,ESE,112,0.0,1.6,66,0.00,,---,0.00,VWS V13.01,2013-04-23 19:37:00,
2013-04-23 15:38:00,47.1,36.4,29.53,North,0,0.9,0.9,66,0.00,,---,0.00,VWS V13.01,2013-04-23 19:38:00,
2013-04-23 15:39:00,47.1,36.4,29.53,WSW,248,1.6,1.6,66,0.00,,---,0.00,VWS V13.01,2013-04-23 19:39:00,
2013-04-23 15:40:00,47.1,36.4,29.53,WSW,248,1.6,1.6,66,0.00,,---,0.00,VWS V13.01,2013-04-23 19:40:00,
2013-04-23 15:43:00,47.3,36.5,29.53,East,90,0.9,2.9,66,0.00,,---,0.00,VWS V13.01,2013-04-23 19:43:00,
2013-04-23 15:44:00,47.3,36.5,29.53,East,90,1.3,1.3,66,0.00,,---,0.00,VWS V13.01,2013-04-23 19:44:00,
2013-04-23 15:45:00,47.3,36.5,29.53,North,0,2.0,2.0,66,0.00,,---,0.00,VWS V13.01,2013-04-23 19:45:00,
2013-04-23 15:48:00,47.3,36.5,29.53,NE,45,1.6,1.6,66,0.00,,---,0.00,VWS V13.01,2013-04-23 19:48:00,
2013-04-23 15:49:00,47.3,36.5,29.53,NE,45,1.6,1.6,66,0.00,,---,0.00,VWS V13.01,2013-04-23 19:49:00,
2013-04-23 15:50:00,47.3,36.5,29.53,ENE,68,0.0,2.0,66,0.00,,---,0.00,VWS V13.01,2013-04-23 19:50:00,
2013-04-23 15:53:00,47.3,36.5,29.53,North,0,2.9,2.9,66,0.00,,---,0.00,VWS V13.01,2013-04-23 19:53:00,
2013-04-23 15:54:00,47.3,36.5,29.53,North,0,0.0,2.9,66,0.00,,---,0.00,VWS V13.01,2013-04-23 19:54:00,
2013-04-23 15:55:00,47.3,36.5,29.53,ENE,68,0.0,0.0,66,0.00,,---,0.00,VWS V13.01,2013-04-23 19:55:00,
2013-04-23 15:58:00,47.3,36.5,29.53,North,0,3.1,3.1,66,0.00,,---,0.00,VWS V13.01,2013-04-23 19:58:00,
2013-04-23 15:59:00,47.3,36.5,29.53,East,90,2.5,3.1,66,0.00,,---,0.00,VWS V13.01,2013-04-23 19:59:00,
2013-04-23 16:00:00,47.3,36.5,29.53,East,90,2.5,2.5,66,0.00,,---,0.00,VWS V13.01,2013-04-23 20:00:00,
2013-04-23 16:03:00,47.3,36.5,29.53,NE,45,2.0,2.0,66,0.00,,---,0.00,VWS V13.01,2013-04-23 20:03:00,
2013-04-23 16:04:00,47.3,36.5,29.53,ENE,68,1.1,2.0,66,0.00,,---,0.00,VWS V13.01,2013-04-23 20:04:00,
2013-04-23 16:05:00,47.3,36.5,29.53,ESE,112,0.0,0.0,66,0.00,,---,0.00,VWS V13.01,2013-04-23 20:05:00,
2013-04-23 16:06:00,47.3,36.5,29.53,WSW,248,2.2,2.2,66,0.00,,---,0.00,VWS V13.01,2013-04-23 20:06:00,
2013-04-23 16:09:00,47.8,37.0,29.53,SSW,202,0.0,2.2,66,0.00,,---,0.00,VWS V13.01,2013-04-23 20:09:00,
2013-04-23 16:10:00,47.8,37.0,29.53,NNE,22,1.3,1.3,66,0.00,,---,0.00,VWS V13.01,2013-04-23 20:10:00,
2013-04-23 16:11:00,47.8,37.0,29.53,NNE,22,1.3,1.3,66,0.00,,---,0.00,VWS V13.01,2013-04-23 20:11:00,
2013-04-23 16:14:00,47.7,36.5,29.53,East,90,0.0,1.6,65,0.00,,---,0.00,VWS V13.01,2013-04-23 20:14:00,
2013-04-23 16:15:00,47.7,36.5,29.53,SE,135,2.7,2.7,65,0.00,,---,0.00,VWS V13.01,2013-04-23 20:15:00,
2013-04-23 16:16:00,47.7,36.5,29.53,SW,225,1.1,2.7,65,0.00,,---,0.00,VWS V13.01,2013-04-23 20:16:00,
2013-04-23 16:19:00,47.7,36.5,29.53,East,90,0.0,0.0,65,0.00,,---,0.00,VWS V13.01,2013-04-23 20:19:00,
2013-04-23 16:20:00,47.7,36.5,29.53,East,90,0.9,0.9,65,0.00,,---,0.00,VWS V13.01,2013-04-23 20:20:00,
2013-04-23 16:21:00,47.7,36.5,29.53,NNW,338,1.6,1.6,65,0.00,,---,0.00,VWS V13.01,2013-04-23 20:21:00,
2013-04-23 16:22:00,47.7,36.5,29.53,NNW,338,1.6,1.6,65,0.00,,---,0.00,VWS V13.01,2013-04-23 20:22:00,
2013-04-23 16:24:00,47.7,36.5,29.53,East,90,1.6,1.6,65,0.00,,---,0.00,VWS V13.01,2013-04-23 20:24:00,
2013-04-23 16:25:00,47.7,36.5,29.53,East,90,1.6,1.6,65,0.00,,---,0.00,VWS V13.01,2013-04-23 20:25:00,
2013-04-23 16:26:00,47.7,36.5,29.53,NE,45,3.1,3.1,65,0.00,,---,0.00,VWS V13.01,2013-04-23 20:26:00,
2013-04-23 16:27:00,48.0,37.2,29.53,East,90,0.0,3.1,66,0.00,,---,0.00,VWS V13.01,2013-04-23 20:27:00,
2013-04-23 16:30:00,48.0,36.8,29.53,East,90,2.5,2.5,65,0.00,,---,0.00,VWS V13.01,2013-04-23 20:30:00,
2013-04-23 16:31:00,48.0,36.8,29.53,NNW,338,3.4,3.4,65,0.00,,---,0.00,VWS V13.01,2013-04-23 20:31:00,
2013-04-23 16:32:00,48.0,36.8,29.53,NNE,22,2.9,2.9,65,0.00,,---,0.00,VWS V13.01,2013-04-23 20:32:00,
2013-04-23 16:35:00,48.0,36.8,29.53,East,90,0.0,2.2,65,0.00,,---,0.00,VWS V13.01,2013-04-23 20:35:00,
2013-04-23 16:36:00,48.0,36.8,29.53,NNE,22,0.9,0.9,65,0.00,,---,0.00,VWS V13.01,2013-04-23 20:36:00,
2013-04-23 16:37:00,48.0,36.8,29.53,ESE,112,3.8,3.8,65,0.00,,---,0.00,VWS V13.01,2013-04-23 20:37:00,
2013-04-23 16:40:00,48.0,36.8,29.50,NNW,338,0.0,0.0,65,0.00,,---,0.00,VWS V13.01,2013-04-23 20:40:00,
2013-04-23 16:41:00,48.0,36.8,29.50,NNW,338,0.0,0.0,65,0.00,,---,0.00,VWS V13.01,2013-04-23 20:41:00,
2013-04-23 16:42:00,48.0,36.8,29.50,NNE,22,3.6,4.0,65,0.00,,---,0.00,VWS V13.01,2013-04-23 20:42:00,
2013-04-23 16:45:00,48.0,36.8,29.50,NE,45,3.1,3.1,65,0.00,,---,0.00,VWS V13.01,2013-04-23 20:45:00,
2013-04-23 16:46:00,48.0,36.8,29.50,NE,45,3.1,3.1,65,0.00,,---,0.00,VWS V13.01,2013-04-23 20:46:00,
2013-04-23 16:47:00,48.0,36.8,29.50,NNW,338,0.0,0.0,65,0.00,,---,0.00,VWS V13.01,2013-04-23 20:47:00,
2013-04-23 16:50:00,48.0,36.8,29.50,WSW,248,2.9,2.9,65,0.00,,---,0.00,VWS V13.01,2013-04-23 20:50:00,
2013-04-23 16:51:00,48.0,36.8,29.50,North,0,2.7,2.7,65,0.00,,---,0.00,VWS V13.01,2013-04-23 20:51:00,
2013-04-23 16:52:00,48.0,36.8,29.50,NE,45,1.3,1.3,65,0.00,,---,0.00,VWS V13.01,2013-04-23 20:52:00,
2013-04-23 16:55:00,48.0,36.8,29.50,NE,45,1.6,1.6,65,0.00,,---,0.00,VWS V13.01,2013-04-23 20:55:00,
2013-04-23 16:56:00,48.0,36.8,29.50,North,0,2.9,2.9,65,0.00,,---,0.00,VWS V13.01,2013-04-23 20:56:00,
2013-04-23 16:57:00,48.0,36.8,29.50,NNE,22,2.5,2.9,65,0.00,,---,0.00,VWS V13.01,2013-04-23 20:57:00,
2013-04-23 16:58:00,48.0,36.8,29.50,NNE,22,2.5,2.9,65,0.00,,---,0.00,VWS V13.01,2013-04-23 20:58:00,
2013-04-23 17:00:00,48.0,36.8,29.50,North,0,5.8,5.8,65,0.00,,---,0.00,VWS V13.01,2013-04-23 21:00:00,
2013-04-23 17:01:00,48.0,36.8,29.50,North,0,5.8,5.8,65,0.00,,---,0.00,VWS V13.01,2013-04-23 21:01:00,
2013-04-23 17:02:00,48.0,36.8,29.50,East,90,3.6,5.8,65,0.00,,---,0.00,VWS V13.01,2013-04-23 21:02:00,
2013-04-23 17:03:00,48.0,36.8,29.50,East,90,2.5,2.5,65,0.00,,---,0.00,VWS V13.01,2013-04-23 21:03:00,
2013-04-23 17:06:00,48.0,36.8,29.50,East,90,2.7,2.7,65,0.00,,---,0.00,VWS V13.01,2013-04-23 21:06:00,
2013-04-23 17:07:00,48.0,36.8,29.50,ESE,112,0.9,2.7,65,0.00,,---,0.00,VWS V13.01,2013-04-23 21:07:00,
2013-04-23 17:08:00,48.0,36.8,29.50,NE,45,4.0,4.0,65,0.00,,---,0.00,VWS V13.01,2013-04-23 21:08:00,
2013-04-23 17:11:00,48.0,36.8,29.50,NNW,338,1.3,1.3,65,0.00,,---,0.00,VWS V13.01,2013-04-23 21:11:00,
2013-04-23 17:12:00,48.0,36.8,29.50,NNW,338,1.3,1.3,65,0.00,,---,0.00,VWS V13.01,2013-04-23 21:12:00,
2013-04-23 17:13:00,48.0,36.8,29.50,NE,45,0.0,1.3,65,0.00,,---,0.00,VWS V13.01,2013-04-23 21:13:00,
2013-04-23 17:16:00,48.0,36.8,29.50,NE,45,2.2,2.2,65,0.00,,---,0.00,VWS V13.01,2013-04-23 21:16:00,
2013-04-23 17:17:00,48.0,36.8,29.50,WSW,248,1.6,2.2,65,0.00,,---,0.00,VWS V13.01,2013-04-23 21:17:00,
2013-04-23 17:18:00,48.0,36.8,29.50,ENE,68,0.0,1.6,65,0.00,,---,0.00,VWS V13.01,2013-04-23 21:18:00,
2013-04-23 17:21:00,48.0,36.8,29.50,ENE,68,1.1,1.1,65,0.00,,---,0.00,VWS V13.01,2013-04-23 21:21:00,
2013-04-23 17:22:00,48.0,36.8,29.50,SE,135,0.0,1.1,65,0.00,,---,0.00,VWS V13.01,2013-04-23 21:22:00,
2013-04-23 17:23:00,48.4,37.2,29.50,SW,225,0.0,0.0,65,0.00,,---,0.00,VWS V13.01,2013-04-23 21:23:00,
2013-04-23 17:26:00,48.4,37.2,29.50,ESE,112,3.6,3.6,65,0.00,,---,0.00,VWS V13.01,2013-04-23 21:26:00,
2013-04-23 17:27:00,48.4,37.2,29.50,NNE,22,1.1,3.6,65,0.00,,---,0.00,VWS V13.01,2013-04-23 21:27:00,
2013-04-23 17:28:00,48.4,37.2,29.50,NNE,22,1.6,1.6,65,0.00,,---,0.00,VWS V13.01,2013-04-23 21:28:00,
2013-04-23 17:29:00,48.2,37.0,29.50,WNW,292,3.4,3.4,65,0.00,,---,0.00,VWS V13.01,2013-04-23 21:29:00,
2013-04-23 17:31:00,48.2,37.0,29.50,North,0,2.2,2.2,65,0.00,,---,0.00,VWS V13.01,2013-04-23 21:31:00,
2013-04-23 17:32:00,48.2,37.0,29.50,NW,315,0.0,0.0,65,0.00,,---,0.00,VWS V13.01,2013-04-23 21:32:00,
2013-04-23 17:33:00,48.2,37.0,29.50,ESE,112,2.7,2.7,65,0.00,,---,0.00,VWS V13.01,2013-04-23 21:33:00,
2013-04-23 17:34:00,48.2,37.0,29.50,ESE,112,2.7,2.7,65,0.00,,---,0.00,VWS V13.01,2013-04-23 21:34:00,
2013-04-23 17:36:00,48.2,37.0,29.50,NW,315,0.0,0.0,65,0.00,,---,0.00,VWS V13.01,2013-04-23 21:36:00,
2013-04-23 17:37:00,48.2,37.0,29.50,North,0,1.6,1.6,65,0.00,,---,0.00,VWS V13.01,2013-04-23 21:37:00,
2013-04-23 17:38:00,48.2,37.0,29.50,North,0,1.6,1.6,65,0.00,,---,0.00,VWS V13.01,2013-04-23 21:38:00,
2013-04-23 17:39:00,48.2,37.0,29.50,NW,315,1.3,2.5,65,0.00,,---,0.00,VWS V13.01,2013-04-23 21:39:00,
2013-04-23 17:41:00,48.2,37.0,29.50,ESE,112,0.0,1.3,65,0.00,,---,0.00,VWS V13.01,2013-04-23 21:41:00,
2013-04-23 17:42:00,48.2,37.0,29.50,ENE,68,0.0,0.0,65,0.00,,---,0.00,VWS V13.01,2013-04-23 21:42:00,
2013-04-23 17:43:00,48.2,37.0,29.50,ESE,112,0.0,0.0,65,0.00,,---,0.00,VWS V13.01,2013-04-23 21:43:00,
2013-04-23 17:44:00,48.2,37.0,29.50,NW,315,1.1,1.1,65,0.00,,---,0.00,VWS V13.01,2013-04-23 21:44:00,
2013-04-23 17:47:00,48.2,37.0,29.50,NNE,22,0.0,1.3,65,0.00,,---,0.00,VWS V13.01,2013-04-23 21:47:00,
2013-04-23 17:48:00,48.2,37.0,29.50,NNE,22,3.6,3.6,65,0.00,,---,0.00,VWS V13.01,2013-04-23 21:48:00,
2013-04-23 17:49:00,48.2,37.0,29.50,North,0,0.0,3.6,65,0.00,,---,0.00,VWS V13.01,2013-04-23 21:49:00,
2013-04-23 17:50:00,48.2,37.0,29.50,North,0,0.0,0.0,65,0.00,,---,0.00,VWS V13.01,2013-04-23 21:50:00,
2013-04-23 17:52:00,48.0,37.2,29.50,North,0,0.0,2.5,66,0.00,,---,0.00,VWS V13.01,2013-04-23 21:52:00,
2013-04-23 17:53:00,48.0,37.2,29.50,NNE,22,2.7,2.7,66,0.00,,---,0.00,VWS V13.01,2013-04-23 21:53:00,
2013-04-23 17:54:00,48.0,37.2,29.50,South,180,0.0,2.7,66,0.00,,---,0.00,VWS V13.01,2013-04-23 21:54:00,
2013-04-23 17:55:00,48.0,37.2,29.50,NNE,22,2.5,2.5,66,0.00,,---,0.00,VWS V13.01,2013-04-23 21:55:00,
2013-04-23 17:57:00,48.0,37.2,29.47,ENE,68,0.0,0.0,66,0.00,,---,0.00,VWS V13.01,2013-04-23 21:57:00,
2013-04-23 17:58:00,48.0,37.2,29.47,East,90,1.6,1.6,66,0.00,,---,0.00,VWS V13.01,2013-04-23 21:58:00,
2013-04-23 17:59:00,48.0,37.2,29.47,NW,315,1.6,1.6,66,0.00,,---,0.00,VWS V13.01,2013-04-23 21:59:00,
2013-04-23 18:00:00,48.0,37.2,29.47,East,90,4.9,4.9,66,0.00,,---,0.00,VWS V13.01,2013-04-23 22:00:00,
2013-04-23 18:02:00,48.0,37.2,29.47,North,0,0.9,0.9,66,0.00,,---,0.00,VWS V13.01,2013-04-23 22:02:00,
2013-04-23 18:03:00,48.0,37.2,29.47,East,90,3.1,3.1,66,0.00,,---,0.00,VWS V13.01,2013-04-23 22:03:00,
2013-04-23 18:04:00,47.7,36.9,29.47,NW,315,2.7,3.1,66,0.00,,---,0.00,VWS V13.01,2013-04-23 22:04:00,
2013-04-23 18:05:00,47.8,37.0,29.47,North,0,0.9,2.7,66,0.00,,---,0.00,VWS V13.01,2013-04-23 22:05:00,
2013-04-23 18:07:00,47.8,37.0,29.47,NW,315,1.1,2.0,66,0.00,,---,0.00,VWS V13.01,2013-04-23 22:07:00,
2013-04-23 18:08:00,47.8,37.0,29.47,NW,315,1.1,2.0,66,0.00,,---,0.00,VWS V13.01,2013-04-23 22:08:00,
2013-04-23 18:09:00,47.8,37.0,29.47,WNW,292,1.6,2.7,66,0.00,,---,0.00,VWS V13.01,2013-04-23 22:09:00,
2013-04-23 18:10:00,47.8,37.0,29.47,WSW,248,0.0,1.6,66,0.00,,---,0.00,VWS V13.01,2013-04-23 22:10:00,
2013-04-23 18:12:00,47.8,37.0,29.47,NE,45,1.1,1.1,66,0.00,,---,0.00,VWS V13.01,2013-04-23 22:12:00,
2013-04-23 18:13:00,47.8,37.0,29.47,NNW,338,2.2,2.2,66,0.00,,---,0.00,VWS V13.01,2013-04-23 22:13:00,
2013-04-23 18:14:00,47.8,37.0,29.47,NNE,22,1.3,1.3,66,0.00,,---,0.00,VWS V13.01,2013-04-23 22:14:00,
2013-04-23 18:15:00,47.8,37.0,29.47,ESE,112,1.3,2.0,66,0.00,,---,0.00,VWS V13.01,2013-04-23 22:15:00,
2013-04-23 18:18:00,47.8,37.0,29.47,SSW,202,2.2,2.2,66,0.00,,---,0.00,VWS V13.01,2013-04-23 22:18:00,
2013-04-23 18:19:00,47.8,37.0,29.47,North,0,0.9,2.5,66,0.00,,---,0.00,VWS V13.01,2013-04-23 22:19:00,
2013-04-23 18:20:00,47.8,37.0,29.47,NNE,22,0.0,0.9,66,0.00,,---,0.00,VWS V13.01,2013-04-23 22:20:00,
2013-04-23 18:23:00,48.2,37.4,29.47,ESE,112,0.0,0.0,66,0.00,,---,0.00,VWS V13.01,2013-04-23 22:23:00,
2013-04-23 18:24:00,48.2,37.4,29.47,NW,315,1.1,1.1,66,0.00,,---,0.00,VWS V13.01,2013-04-23 22:24:00,
2013-04-23 18:25:00,48.2,37.4,29.47,NW,315,1.1,1.1,66,0.00,,---,0.00,VWS V13.01,2013-04-23 22:25:00,
2013-04-23 18:28:00,48.2,37.4,29.47,West,270,2.7,2.7,66,0.00,,---,0.00,VWS V13.01,2013-04-23 22:28:00,
2013-04-23 18:29:00,48.2,37.4,29.47,NNE,22,1.3,2.7,66,0.00,,---,0.00,VWS V13.01,2013-04-23 22:29:00,
2013-04-23 18:30:00,48.2,37.4,29.47,NNW,338,0.9,1.6,66,0.00,,---,0.00,VWS V13.01,2013-04-23 22:30:00,
2013-04-23 18:33:00,48.2,37.4,29.47,NE,45,0.0,0.0,66,0.00,,---,0.00,VWS V13.01,2013-04-23 22:33:00,
2013-04-23 18:34:00,48.2,37.4,29.47,NE,45,0.0,0.0,66,0.00,,---,0.00,VWS V13.01,2013-04-23 22:34:00,
2013-04-23 18:36:00,48.2,37.4,29.47,NE,45,1.3,1.3,66,0.00,,---,0.00,VWS V13.01,2013-04-23 22:36:00,
2013-04-23 18:39:00,48.4,37.2,29.47,NE,45,0.0,0.0,65,0.00,,---,0.00,VWS V13.01,2013-04-23 22:39:00,
2013-04-23 18:41:00,48.4,37.2,29.47,NE,45,1.1,2.9,65,0.00,,---,0.00,VWS V13.01,2013-04-23 22:41:00,
2013-04-23 18:44:00,48.4,37.2,29.47,NE,45,1.1,1.1,65,0.00,,---,0.00,VWS V13.01,2013-04-23 22:44:00,
2013-04-23 18:46:00,48.4,37.2,29.47,East,90,3.1,3.1,65,0.00,,---,0.00,VWS V13.01,2013-04-23 22:46:00,
2013-04-23 18:49:00,48.0,36.8,29.47,ENE,68,1.1,1.1,65,0.00,,---,0.00,VWS V13.01,2013-04-23 22:49:00,
2013-04-23 18:50:00,48.0,37.2,29.47,ENE,68,1.1,1.1,66,0.00,,---,0.00,VWS V13.01,2013-04-23 22:50:00,
2013-04-23 18:51:00,48.0,37.2,29.47,WSW,248,0.0,1.1,66,0.00,,---,0.00,VWS V13.01,2013-04-23 22:51:00,
2013-04-23 18:54:00,48.0,37.2,29.47,North,0,1.3,2.2,66,0.00,,---,0.00,VWS V13.01,2013-04-23 22:54:00,
2013-04-23 18:55:00,48.0,37.2,29.47,North,0,3.4,3.4,66,0.00,,---,0.00,VWS V13.01,2013-04-23 22:55:00,
2013-04-23 18:56:00,48.0,37.2,29.47,NNE,22,1.1,2.5,66,0.00,,---,0.00,VWS V13.01,2013-04-23 22:56:00,
2013-04-23 18:59:00,48.0,37.2,29.47,ENE,68,4.0,4.0,66,0.00,,---,0.00,VWS V13.01,2013-04-23 22:59:00,
2013-04-23 19:00:00,48.0,37.2,29.47,ENE,68,2.5,4.0,66,0.00,,---,0.00,VWS V13.01,2013-04-23 23:00:00,
2013-04-23 19:02:00,48.0,37.2,29.47,ESE,112,0.0,0.0,66,0.00,,---,0.00,VWS V13.01,2013-04-23 23:02:00,
2013-04-23 19:04:00,48.0,37.2,29.47,NNE,22,5.4,5.4,66,0.00,,---,0.00,VWS V13.01,2013-04-23 23:04:00,
2013-04-23 19:05:00,47.7,36.9,29.47,SSE,158,3.1,5.4,66,0.00,,---,0.00,VWS V13.01,2013-04-23 23:05:00,
2013-04-23 19:07:00,47.7,36.9,29.47,East,90,1.3,1.3,66,0.00,,---,0.00,VWS V13.01,2013-04-23 23:07:00,
2013-04-23 19:09:00,47.5,36.7,29.44,SSE,158,0.0,0.0,66,0.00,,---,0.00,VWS V13.01,2013-04-23 23:09:00,
2013-04-23 19:10:00,47.5,36.7,29.44,SSE,158,0.0,0.0,66,0.00,,---,0.00,VWS V13.01,2013-04-23 23:10:00,
2013-04-23 19:13:00,47.5,36.7,29.44,NE,45,2.5,2.5,66,0.00,,---,0.00,VWS V13.01,2013-04-23 23:13:00,
2013-04-23 19:15:00,47.5,36.7,29.44,South,180,0.0,0.0,66,0.00,,---,0.00,VWS V13.01,2013-04-23 23:15:00,
2013-04-23 19:16:00,47.5,36.7,29.44,NNE,22,0.0,0.0,66,0.00,,---,0.00,VWS V13.01,2013-04-23 23:16:00,
2013-04-23 19:18:00,47.3,36.5,29.44,East,90,0.0,0.0,66,0.00,,---,0.00,VWS V13.01,2013-04-23 23:18:00,
2013-04-23 19:20:00,47.3,36.5,29.44,North,0,0.0,0.9,66,0.00,,---,0.00,VWS V13.01,2013-04-23 23:20:00,
2013-04-23 19:21:00,47.3,36.5,29.44,North,0,0.0,0.0,66,0.00,,---,0.00,VWS V13.01,2013-04-23 23:21:00,
2013-04-23 19:23:00,47.3,36.5,29.44,WSW,248,1.6,1.6,66,0.00,,---,0.00,VWS V13.01,2013-04-23 23:23:00,
2013-04-23 19:25:00,47.3,36.5,29.44,NNE,22,2.0,2.0,66,0.00,,---,0.00,VWS V13.01,2013-04-23 23:25:00,
2013-04-23 19:26:00,47.3,36.5,29.44,North,0,1.3,1.3,66,0.00,,---,0.00,VWS V13.01,2013-04-23 23:26:00,
2013-04-23 19:28:00,47.3,36.5,29.44,NNW,338,2.7,2.7,66,0.00,,---,0.00,VWS V13.01,2013-04-23 23:28:00,
2013-04-23 19:30:00,47.3,36.5,29.44,NNW,338,1.3,2.7,66,0.00,,---,0.00,VWS V13.01,2013-04-23 23:30:00,
2013-04-23 19:31:00,47.3,36.5,29.44,WSW,248,1.1,1.3,66,0.00,,---,0.00,VWS V13.01,2013-04-23 23:31:00,
2013-04-23 19:34:00,46.6,36.2,29.44,NW,315,2.0,2.5,67,0.00,,---,0.00,VWS V13.01,2013-04-23 23:34:00,
2013-04-23 19:35:00,46.6,36.2,29.44,NNW,338,2.7,2.7,67,0.00,,---,0.00,VWS V13.01,2013-04-23 23:35:00,
2013-04-23 19:37:00,46.6,36.2,29.44,SW,225,0.0,0.0,67,0.00,,---,0.00,VWS V13.01,2013-04-23 23:37:00,
2013-04-23 19:39:00,46.4,36.0,29.44,WSW,248,0.0,0.0,67,0.00,,---,0.00,VWS V13.01,2013-04-23 23:39:00,
2013-04-23 19:40:00,46.4,36.0,29.44,WSW,248,0.0,3.4,67,0.00,,---,0.00,VWS V13.01,2013-04-23 23:40:00,
2013-04-23 19:41:00,46.4,36.0,29.44,WSW,248,0.0,0.0,67,0.00,,---,0.00,VWS V13.01,2013-04-23 23:41:00,
2013-04-23 19:42:00,46.4,36.0,29.44,North,0,1.6,1.6,67,0.00,,---,0.00,VWS V13.01,2013-04-23 23:42:00,
2013-04-23 19:44:00,46.4,36.0,29.44,NE,45,2.9,2.9,67,0.00,,---,0.00,VWS V13.01,2013-04-23 23:44:00,
2013-04-23 19:45:00,46.2,36.3,29.44,SW,225,0.9,2.2,68,0.00,,---,0.00,VWS V13.01,2013-04-23 23:45:00,
2013-04-23 19:46:00,46.2,36.3,29.44,SSW,202,0.0,0.9,68,0.00,,---,0.00,VWS V13.01,2013-04-23 23:46:00,
2013-04-23 19:47:00,46.2,36.3,29.44,NNE,22,0.0,0.0,68,0.00,,---,0.00,VWS V13.01,2013-04-23 23:47:00,
2013-04-23 19:49:00,46.2,36.3,29.44,North,0,2.9,3.4,68,0.00,,---,0.00,VWS V13.01,2013-04-23 23:49:00,
2013-04-23 19:50:00,46.2,36.3,29.44,East,90,2.5,2.5,68,0.00,,---,0.00,VWS V13.01,2013-04-23 23:50:00,
2013-04-23 19:51:00,46.2,36.3,29.44,East,90,2.5,2.5,68,0.00,,---,0.00,VWS V13.01,2013-04-23 23:51:00,
2013-04-23 19:52:00,46.2,36.3,29.44,South,180,1.3,2.5,68,0.00,,---,0.00,VWS V13.01,2013-04-23 23:52:00,
2013-04-23 19:54:00,46.2,36.3,29.44,ENE,68,3.6,3.6,68,0.00,,---,0.00,VWS V13.01,2013-04-23 23:54:00,
2013-04-23 19:56:00,46.2,36.3,29.44,NE,45,1.3,1.3,68,0.00,,---,0.00,VWS V13.01,2013-04-23 23:56:00,
2013-04-23 19:57:00,46.2,36.3,29.44,NNW,338,2.0,2.0,68,0.00,,---,0.00,VWS V13.01,2013-04-23 23:57:00,
2013-04-23 19:59:00,46.2,36.3,29.44,North,0,2.7,2.7,68,0.00,,---,0.00,VWS V13.01,2013-04-23 23:59:00,
2013-04-23 20:01:00,46.2,36.3,29.44,SW,225,0.0,2.0,68,0.00,,---,0.00,VWS V13.01,2013-04-24 00:01:00,
2013-04-23 20:02:00,45.5,35.9,29.44,WSW,248,0.9,0.9,69,0.00,,---,0.00,VWS V13.01,2013-04-24 00:02:00,
2013-04-23 20:03:00,45.5,35.9,29.44,ENE,68,1.3,1.3,69,0.00,,---,0.00,VWS V13.01,2013-04-24 00:03:00,
2013-04-23 20:04:00,45.5,35.9,29.44,NNW,338,1.3,2.0,69,0.00,,---,0.00,VWS V13.01,2013-04-24 00:04:00,
2013-04-23 20:06:00,45.5,35.9,29.44,NNW,338,1.3,1.3,69,0.00,,---,0.00,VWS V13.01,2013-04-24 00:06:00,
2013-04-23 20:07:00,45.5,35.9,29.44,East,90,0.0,0.0,69,0.00,,---,0.00,VWS V13.01,2013-04-24 00:07:00,
2013-04-23 20:08:00,45.3,35.8,29.44,East,90,0.0,0.0,69,0.00,,---,0.00,VWS V13.01,2013-04-24 00:08:00,
2013-04-23 20:10:00,45.3,35.8,29.44,ENE,68,0.0,0.0,69,0.00,,---,0.00,VWS V13.01,2013-04-24 00:10:00,
2013-04-23 20:11:00,45.3,35.8,29.44,ENE,68,0.0,0.0,69,0.00,,---,0.00,VWS V13.01,2013-04-24 00:11:00,
2013-04-23 20:12:00,45.3,35.8,29.44,ENE,68,0.0,0.0,69,0.00,,---,0.00,VWS V13.01,2013-04-24 00:12:00,
2013-04-23 20:13:00,45.3,35.8,29.44,ENE,68,0.0,0.0,69,0.00,,---,0.00,VWS V13.01,2013-04-24 00:13:00,
2013-04-23 20:15:00,45.3,35.8,29.44,WNW,292,0.0,0.0,69,0.00,,---,0.00,VWS V13.01,2013-04-24 00:15:00,
2013-04-23 20:16:00,45.3,35.8,29.44,NE,45,1.1,1.1,69,0.00,,---,0.00,VWS V13.01,2013-04-24 00:16:00,
2013-04-23 20:17:00,45.3,35.8,29.44,NNW,338,2.0,2.0,69,0.00,,---,0.00,VWS V13.01,2013-04-24 00:17:00,
2013-04-23 20:18:00,45.3,35.8,29.44,NNW,338,2.0,2.0,69,0.00,,---,0.00,VWS V13.01,2013-04-24 00:18:00,
2013-04-23 20:20:00,45.3,35.8,29.44,ENE,68,1.3,1.3,69,0.00,,---,0.00,VWS V13.01,2013-04-24 00:20:00,
2013-04-23 20:22:00,45.3,35.8,29.44,NNE,22,2.0,2.0,69,0.00,,---,0.00,VWS V13.01,2013-04-24 00:22:00,
2013-04-23 20:23:00,45.3,35.8,29.44,NNE,22,2.5,2.5,69,0.00,,---,0.00,VWS V13.01,2013-04-24 00:23:00,
2013-04-23 20:25:00,45.3,35.8,29.44,NNW,338,0.0,1.1,69,0.00,,---,0.00,VWS V13.01,2013-04-24 00:25:00,
2013-04-23 20:27:00,45.3,35.8,29.44,NNE,22,1.1,1.1,69,0.00,,---,0.00,VWS V13.01,2013-04-24 00:27:00,
2013-04-23 20:28:00,45.3,35.8,29.44,NE,45,0.0,0.9,69,0.00,,---,0.00,VWS V13.01,2013-04-24 00:28:00,
2013-04-23 20:30:00,45.3,35.8,29.44,NE,45,1.3,1.3,69,0.00,,---,0.00,VWS V13.01,2013-04-24 00:30:00,
2013-04-23 20:32:00,44.6,35.4,29.44,ENE,68,0.0,0.0,70,0.00,,---,0.00,VWS V13.01,2013-04-24 00:32:00,
2013-04-23 20:34:00,44.6,35.4,29.44,SSE,158,2.5,2.5,70,0.00,,---,0.00,VWS V13.01,2013-04-24 00:34:00,
2013-04-23 20:35:00,44.6,35.4,29.44,NE,45,0.0,1.3,70,0.00,,---,0.00,VWS V13.01,2013-04-24 00:35:00,
2013-04-23 20:37:00,44.4,35.6,29.44,NNW,338,1.6,1.6,71,0.00,,---,0.00,VWS V13.01,2013-04-24 00:37:00,
2013-04-23 20:39:00,44.4,35.6,29.44,North,0,2.0,2.0,71,0.00,,---,0.00,VWS V13.01,2013-04-24 00:39:00,
2013-04-23 20:40:00,44.4,35.6,29.44,East,90,0.9,0.9,71,0.00,,---,0.00,VWS V13.01,2013-04-24 00:40:00,
2013-04-23 20:42:00,44.4,35.6,29.44,NE,45,0.0,0.0,71,0.00,,---,0.00,VWS V13.01,2013-04-24 00:42:00,
2013-04-23 20:43:00,44.4,35.6,29.44,NE,45,0.0,0.0,71,0.00,,---,0.00,VWS V13.01,2013-04-24 00:43:00,
2013-04-23 20:44:00,44.4,35.6,29.44,NE,45,1.1,1.1,71,0.00,,---,0.00,VWS V13.01,2013-04-24 00:44:00,
2013-04-23 20:45:00,44.4,35.6,29.44,NW,315,2.0,2.0,71,0.00,,---,0.00,VWS V13.01,2013-04-24 00:45:00,
2013-04-23 20:48:00,44.4,35.6,29.44,NE,45,3.1,3.1,71,0.00,,---,0.00,VWS V13.01,2013-04-24 00:48:00,
2013-04-23 20:49:00,44.4,35.6,29.44,NE,45,0.0,3.1,71,0.00,,---,0.00,VWS V13.01,2013-04-24 00:49:00,
2013-04-23 20:51:00,44.4,35.6,29.44,East,90,0.0,1.1,71,0.00,,---,0.00,VWS V13.01,2013-04-24 00:51:00,
2013-04-23 20:53:00,44.4,35.6,29.44,SE,135,0.0,0.0,71,0.00,,---,0.00,VWS V13.01,2013-04-24 00:53:00,
2013-04-23 20:54:00,44.4,35.6,29.44,ENE,68,1.3,1.3,71,0.00,,---,0.00,VWS V13.01,2013-04-24 00:54:00,
2013-04-23 20:56:00,44.4,35.6,29.44,East,90,2.5,3.6,71,0.00,,---,0.00,VWS V13.01,2013-04-24 00:56:00,
2013-04-23 20:58:00,44.4,35.6,29.44,NNW,338,2.7,2.7,71,0.00,,---,0.00,VWS V13.01,2013-04-24 00:58:00,
2013-04-23 20:59:00,44.4,35.6,29.44,North,0,2.9,2.9,71,0.00,,---,0.00,VWS V13.01,2013-04-24 00:59:00,
2013-04-23 21:01:00,43.9,35.1,29.44,NNW,338,0.9,0.9,71,0.00,,---,0.00,VWS V13.01,2013-04-24 01:01:00,
2013-04-23 21:03:00,43.9,35.1,29.44,North,0,0.9,0.9,71,0.00,,---,0.00,VWS V13.01,2013-04-24 01:03:00,
2013-04-23 21:04:00,43.9,35.1,29.44,North,0,2.5,2.5,71,0.00,,---,0.00,VWS V13.01,2013-04-24 01:04:00,
2013-04-23 21:06:00,43.9,35.1,29.44,NNW,338,3.1,3.1,71,0.00,,---,0.00,VWS V13.01,2013-04-24 01:06:00,
2013-04-23 21:08:00,43.9,35.1,29.44,West,270,2.0,2.2,71,0.00,,---,0.00,VWS V13.01,2013-04-24 01:08:00,
2013-04-23 21:09:00,43.9,35.1,29.44,West,270,2.0,2.2,71,0.00,,---,0.00,VWS V13.01,2013-04-24 01:09:00,
2013-04-23 21:10:00,43.9,35.1,29.44,North,0,0.0,0.0,71,0.00,,---,0.00,VWS V13.01,2013-04-24 01:10:00,
2013-04-23 21:11:00,43.9,35.1,29.44,West,270,2.0,2.0,71,0.00,,---,0.00,VWS V13.01,2013-04-24 01:11:00,
2013-04-23 21:13:00,43.9,35.1,29.44,NNW,338,0.0,0.0,71,0.00,,---,0.00,VWS V13.01,2013-04-24 01:13:00,
2013-04-23 21:14:00,43.9,35.1,29.44,NW,315,0.0,0.0,71,0.00,,---,0.00,VWS V13.01,2013-04-24 01:14:00,
2013-04-23 21:15:00,43.9,35.1,29.44,SSE,158,0.0,0.0,71,0.00,,---,0.00,VWS V13.01,2013-04-24 01:15:00,
2013-04-23 21:16:00,43.9,35.1,29.44,SSE,158,0.0,0.0,71,0.00,,---,0.00,VWS V13.01,2013-04-24 01:16:00,
2013-04-23 21:18:00,43.9,35.1,29.44,NW,315,0.0,0.0,71,0.00,,---,0.00,VWS V13.01,2013-04-24 01:18:00,
2013-04-23 21:19:00,43.9,35.1,29.44,NW,315,0.0,0.0,71,0.00,,---,0.00,VWS V13.01,2013-04-24 01:19:00,
2013-04-23 21:20:00,43.9,35.1,29.44,North,0,3.1,3.1,71,0.00,,---,0.00,VWS V13.01,2013-04-24 01:20:00,
2013-04-23 21:21:00,43.9,35.1,29.44,WNW,292,3.4,3.4,71,0.00,,---,0.00,VWS V13.01,2013-04-24 01:21:00,
2013-04-23 21:24:00,43.3,34.9,29.44,NE,45,1.1,2.7,72,0.00,,---,0.00,VWS V13.01,2013-04-24 01:24:00,
2013-04-23 21:25:00,43.2,34.8,29.44,ESE,112,2.0,2.0,72,0.00,,---,0.00,VWS V13.01,2013-04-24 01:25:00,
2013-04-23 21:27:00,43.2,34.8,29.44,East,90,1.6,2.0,72,0.00,,---,0.00,VWS V13.01,2013-04-24 01:27:00,
2013-04-23 21:29:00,43.2,34.8,29.44,NE,45,1.6,1.6,72,0.00,,---,0.00,VWS V13.01,2013-04-24 01:29:00,
2013-04-23 21:30:00,43.2,34.8,29.44,NE,45,0.9,1.6,72,0.00,,---,0.00,VWS V13.01,2013-04-24 01:30:00,
2013-04-23 21:32:00,43.2,34.8,29.44,WNW,292,1.3,2.7,72,0.00,,---,0.00,VWS V13.01,2013-04-24 01:32:00,
2013-04-23 21:34:00,43.2,34.8,29.44,East,90,0.9,2.2,72,0.00,,---,0.00,VWS V13.01,2013-04-24 01:34:00,
2013-04-23 21:35:00,43.2,34.8,29.44,ENE,68,2.5,2.5,72,0.00,,---,0.00,VWS V13.01,2013-04-24 01:35:00,
2013-04-23 21:37:00,43.2,34.8,29.44,NW,315,2.5,2.5,72,0.00,,---,0.00,VWS V13.01,2013-04-24 01:37:00,
2013-04-23 21:39:00,43.2,34.8,29.44,WSW,248,0.0,0.0,72,0.00,,---,0.00,VWS V13.01,2013-04-24 01:39:00,
2013-04-23 21:40:00,43.2,34.8,29.41,NNE,22,0.0,0.0,72,0.00,,---,0.00,VWS V13.01,2013-04-24 01:40:00,
2013-04-23 21:41:00,43.2,34.8,29.41,SSE,158,1.3,1.3,72,0.00,,---,0.00,VWS V13.01,2013-04-24 01:41:00,
2013-04-23 21:42:00,43.2,34.8,29.41,WSW,248,0.0,1.3,72,0.00,,---,0.00,VWS V13.01,2013-04-24 01:42:00,
2013-04-23 21:44:00,43.2,34.8,29.41,NW,315,2.9,2.9,72,0.00,,---,0.00,VWS V13.01,2013-04-24 01:44:00,
2013-04-23 21:45:00,43.2,34.8,29.41,ESE,112,0.0,0.0,72,0.00,,---,0.00,VWS V13.01,2013-04-24 01:45:00,
2013-04-23 21:46:00,43.2,34.8,29.41,North,0,1.1,1.1,72,0.00,,---,0.00,VWS V13.01,2013-04-24 01:46:00,
2013-04-23 21:47:00,43.2,34.8,29.41,ENE,68,4.3,4.3,72,0.00,,---,0.00,VWS V13.01,2013-04-24 01:47:00,
2013-04-23 21:49:00,42.6,34.6,29.41,SSE,158,0.0,2.7,73,0.00,,---,0.00,VWS V13.01,2013-04-24 01:49:00,
2013-04-23 21:50:00,42.6,34.6,29.41,West,270,2.7,2.7,73,0.00,,---,0.00,VWS V13.01,2013-04-24 01:50:00,
2013-04-23 21:51:00,42.6,34.6,29.41,South,180,0.9,2.7,73,0.00,,---,0.00,VWS V13.01,2013-04-24 01:51:00,
2013-04-23 21:52:00,42.6,34.6,29.41,ENE,68,0.0,2.7,73,0.00,,---,0.00,VWS V13.01,2013-04-24 01:52:00,
2013-04-23 21:54:00,42.4,34.8,29.41,North,0,0.0,0.0,74,0.00,,---,0.00,VWS V13.01,2013-04-24 01:54:00,
2013-04-23 21:55:00,42.4,34.8,29.41,West,270,0.0,0.0,74,0.00,,---,0.00,VWS V13.01,2013-04-24 01:55:00,
2013-04-23 21:56:00,42.4,34.8,29.41,WNW,292,2.0,2.0,74,0.00,,---,0.00,VWS V13.01,2013-04-24 01:56:00,
2013-04-23 21:57:00,42.4,34.8,29.41,SSW,202,0.9,2.0,74,0.00,,---,0.00,VWS V13.01,2013-04-24 01:57:00,
2013-04-23 21:59:00,42.4,34.8,29.41,ESE,112,1.6,1.6,74,0.00,,---,0.00,VWS V13.01,2013-04-24 01:59:00,
2013-04-23 22:00:00,42.4,34.8,29.41,ESE,112,0.0,0.0,74,0.00,,---,0.00,VWS V13.01,2013-04-24 02:00:00,
2013-04-23 22:01:00,42.4,34.8,29.41,ESE,112,0.0,0.0,74,0.00,,---,0.00,VWS V13.01,2013-04-24 02:01:00,
2013-04-23 22:02:00,42.4,34.8,29.41,ESE,112,0.0,0.0,74,0.00,,---,0.00,VWS V13.01,2013-04-24 02:02:00,
2013-04-23 22:04:00,42.4,34.8,29.41,SSE,158,0.0,0.0,74,0.00,,---,0.00,VWS V13.01,2013-04-24 02:04:00,
2013-04-23 22:05:00,42.4,34.8,29.41,WSW,248,0.9,0.9,74,0.00,,---,0.00,VWS V13.01,2013-04-24 02:05:00,
2013-04-23 22:06:00,42.3,34.6,29.41,WSW,248,0.0,0.9,74,0.00,,---,0.00,VWS V13.01,2013-04-24 02:06:00,
2013-04-23 22:07:00,42.3,34.6,29.41,WSW,248,0.0,0.0,74,0.00,,---,0.00,VWS V13.01,2013-04-24 02:07:00,
2013-04-23 22:09:00,42.3,34.6,29.41,ENE,68,0.0,0.0,74,0.00,,---,0.00,VWS V13.01,2013-04-24 02:09:00,
2013-04-23 22:11:00,42.3,34.6,29.44,ENE,68,0.0,0.0,74,0.00,,---,0.00,VWS V13.01,2013-04-24 02:11:00,
2013-04-23 22:12:00,42.3,34.6,29.44,East,90,0.0,0.0,74,0.00,,---,0.00,VWS V13.01,2013-04-24 02:12:00,
2013-04-23 22:15:00,42.3,34.6,29.44,East,90,0.0,0.0,74,0.00,,---,0.00,VWS V13.01,2013-04-24 02:15:00,
2013-04-23 22:16:00,42.1,34.7,29.44,NE,45,1.6,1.6,75,0.00,,---,0.00,VWS V13.01,2013-04-24 02:16:00,
2013-04-23 22:18:00,41.9,34.2,29.44,WNW,292,1.6,1.6,74,0.00,,---,0.00,VWS V13.01,2013-04-24 02:18:00,
2013-04-23 22:21:00,41.9,34.6,29.44,ESE,112,2.0,2.0,75,0.00,,---,0.00,VWS V13.01,2013-04-24 02:21:00,
2013-04-23 22:22:00,41.9,34.6,29.44,West,270,1.1,2.0,75,0.00,,---,0.00,VWS V13.01,2013-04-24 02:22:00,
2013-04-23 22:23:00,41.9,34.6,29.44,NNE,22,0.0,0.0,75,0.00,,---,0.00,VWS V13.01,2013-04-24 02:23:00,
2013-04-23 22:27:00,41.7,34.4,29.44,NE,45,1.1,1.1,75,0.00,,---,0.00,VWS V13.01,2013-04-24 02:27:00,
2013-04-23 22:28:00,41.7,34.4,29.44,East,90,0.9,0.9,75,0.00,,---,0.00,VWS V13.01,2013-04-24 02:28:00,
2013-04-23 22:32:00,41.7,34.4,29.44,NE,45,2.0,2.0,75,0.00,,---,0.00,VWS V13.01,2013-04-24 02:32:00,
2013-04-23 22:33:00,41.7,34.4,29.44,NNE,22,2.5,2.5,75,0.00,,---,0.00,VWS V13.01,2013-04-24 02:33:00,
2013-04-23 22:37:00,41.7,34.4,29.44,East,90,0.0,1.3,75,0.00,,---,0.00,VWS V13.01,2013-04-24 02:37:00,
2013-04-23 22:39:00,41.7,34.4,29.44,NW,315,1.3,1.6,75,0.00,,---,0.00,VWS V13.01,2013-04-24 02:39:00,
2013-04-23 22:42:00,41.5,34.5,29.44,WNW,292,0.0,0.0,76,0.00,,---,0.00,VWS V13.01,2013-04-24 02:42:00,
2013-04-23 22:44:00,41.5,34.5,29.44,NE,45,0.0,0.0,76,0.00,,---,0.00,VWS V13.01,2013-04-24 02:44:00,
2013-04-23 22:48:00,41.5,34.5,29.41,NNE,22,0.0,0.0,76,0.00,,---,0.00,VWS V13.01,2013-04-24 02:48:00,
2013-04-23 22:49:00,41.5,34.5,29.41,NNE,22,2.5,2.5,76,0.00,,---,0.00,VWS V13.01,2013-04-24 02:49:00,
2013-04-23 22:50:00,41.5,34.5,29.41,NNE,22,2.5,2.5,76,0.00,,---,0.00,VWS V13.01,2013-04-24 02:50:00,
2013-04-23 22:53:00,41.5,34.5,29.41,East,90,0.0,0.9,76,0.00,,---,0.00,VWS V13.01,2013-04-24 02:53:00,
2013-04-23 22:55:00,41.5,34.5,29.41,North,0,1.3,1.3,76,0.00,,---,0.00,VWS V13.01,2013-04-24 02:55:00,
2013-04-23 22:56:00,41.5,34.5,29.41,NE,45,0.0,1.3,76,0.00,,---,0.00,VWS V13.01,2013-04-24 02:56:00,
2013-04-23 22:58:00,41.5,34.5,29.41,North,0,0.0,2.0,76,0.00,,---,0.00,VWS V13.01,2013-04-24 02:58:00,
2013-04-23 22:59:00,41.5,34.5,29.41,North,0,0.0,2.0,76,0.00,,---,0.00,VWS V13.01,2013-04-24 02:59:00,
2013-04-23 23:00:00,41.5,34.5,29.41,North,0,2.0,2.0,76,0.00,,---,0.00,VWS V13.01,2013-04-24 03:00:00,
2013-04-23 23:02:00,41.5,34.5,29.41,WNW,292,0.9,1.6,76,0.00,,---,0.00,VWS V13.01,2013-04-24 03:02:00,
2013-04-23 23:04:00,41.5,34.5,29.41,East,90,3.4,3.4,76,0.00,,---,0.00,VWS V13.01,2013-04-24 03:04:00,
2013-04-23 23:05:00,41.5,34.5,29.41,NE,45,0.9,3.4,76,0.00,,---,0.00,VWS V13.01,2013-04-24 03:05:00,
2013-04-23 23:06:00,41.5,34.5,29.41,North,0,1.3,1.3,76,0.00,,---,0.00,VWS V13.01,2013-04-24 03:06:00,
2013-04-23 23:07:00,41.5,34.5,29.41,WNW,292,0.0,1.3,76,0.00,,---,0.00,VWS V13.01,2013-04-24 03:07:00,
2013-04-23 23:09:00,41.5,34.5,29.41,SSW,202,1.1,2.5,76,0.00,,---,0.00,VWS V13.01,2013-04-24 03:09:00,
2013-04-23 23:10:00,41.5,34.9,29.41,NE,45,0.0,0.0,77,0.00,,---,0.00,VWS V13.01,2013-04-24 03:10:00,
2013-04-23 23:11:00,41.5,34.9,29.41,NE,45,0.0,0.0,77,0.00,,---,0.00,VWS V13.01,2013-04-24 03:11:00,
2013-04-23 23:12:00,41.5,34.9,29.41,NE,45,0.0,0.0,77,0.00,,---,0.00,VWS V13.01,2013-04-24 03:12:00,
2013-04-23 23:14:00,41.5,34.9,29.41,NNE,22,0.9,0.9,77,0.00,,---,0.00,VWS V13.01,2013-04-24 03:14:00,
2013-04-23 23:16:00,41.5,34.9,29.41,East,90,1.1,1.1,77,0.00,,---,0.00,VWS V13.01,2013-04-24 03:16:00,
2013-04-23 23:17:00,41.5,34.9,29.41,ENE,68,0.0,0.0,77,0.00,,---,0.00,VWS V13.01,2013-04-24 03:17:00,
2013-04-23 23:20:00,41.5,34.9,29.41,NNE,22,0.0,0.0,77,0.00,,---,0.00,VWS V13.01,2013-04-24 03:20:00,
2013-04-23 23:21:00,41.5,34.9,29.41,ESE,112,0.0,0.0,77,0.00,,---,0.00,VWS V13.01,2013-04-24 03:21:00,
2013-04-23 23:22:00,41.5,34.9,29.41,East,90,0.0,0.0,77,0.00,,---,0.00,VWS V13.01,2013-04-24 03:22:00,
2013-04-23 23:25:00,41.5,34.9,29.41,NNW,338,0.0,0.0,77,0.00,,---,0.00,VWS V13.01,2013-04-24 03:25:00,
2013-04-23 23:26:00,41.5,34.9,29.41,SSW,202,0.0,0.0,77,0.00,,---,0.00,VWS V13.01,2013-04-24 03:26:00,
2013-04-23 23:27:00,41.5,34.9,29.41,SSW,202,0.0,0.0,77,0.00,,---,0.00,VWS V13.01,2013-04-24 03:27:00,
2013-04-23 23:28:00,41.5,34.9,29.41,NW,315,0.0,0.0,77,0.00,,---,0.00,VWS V13.01,2013-04-24 03:28:00,
2013-04-23 23:30:00,41.2,34.5,29.41,NW,315,0.0,0.9,77,0.00,,---,0.00,VWS V13.01,2013-04-24 03:30:00,
2013-04-23 23:32:00,41.2,34.5,29.41,South,180,0.0,0.0,77,0.00,,---,0.00,VWS V13.01,2013-04-24 03:32:00,
2013-04-23 23:33:00,41.2,34.5,29.41,SW,225,0.0,0.0,77,0.00,,---,0.00,VWS V13.01,2013-04-24 03:33:00,
2013-04-23 23:36:00,41.4,34.7,29.41,West,270,0.0,0.0,77,0.00,,---,0.00,VWS V13.01,2013-04-24 03:36:00,
2013-04-23 23:37:00,41.4,34.7,29.41,WNW,292,0.0,0.0,77,0.00,,---,0.00,VWS V13.01,2013-04-24 03:37:00,
2013-04-23 23:39:00,41.4,34.7,29.41,NNE,22,2.0,2.0,77,0.00,,---,0.00,VWS V13.01,2013-04-24 03:39:00,
2013-04-23 23:41:00,41.4,34.7,29.41,NNW,338,0.0,0.0,77,0.00,,---,0.00,VWS V13.01,2013-04-24 03:41:00,
2013-04-23 23:42:00,41.4,34.7,29.41,North,0,1.6,1.6,77,0.00,,---,0.00,VWS V13.01,2013-04-24 03:42:00,
2013-04-23 23:44:00,41.5,34.9,29.41,North,0,1.3,1.6,77,0.00,,---,0.00,VWS V13.01,2013-04-24 03:44:00,
2013-04-23 23:46:00,41.5,34.9,29.41,ENE,68,0.9,0.9,77,0.00,,---,0.00,VWS V13.01,2013-04-24 03:46:00,
2013-04-23 23:48:00,41.5,34.9,29.38,North,0,1.6,1.6,77,0.00,,---,0.00,VWS V13.01,2013-04-24 03:48:00,
2013-04-23 23:49:00,41.5,34.9,29.38,North,0,1.6,1.6,77,0.00,,---,0.00,VWS V13.01,2013-04-24 03:49:00,
2013-04-23 23:50:00,41.5,34.9,29.38,SE,135,0.0,0.0,77,0.00,,---,0.00,VWS V13.01,2013-04-24 03:50:00,
2013-04-23 23:52:00,41.5,34.9,29.38,SW,225,0.0,0.0,77,0.00,,---,0.00,VWS V13.01,2013-04-24 03:52:00,
2013-04-23 23:54:00,41.5,34.9,29.38,North,0,0.9,0.9,77,0.00,,---,0.00,VWS V13.01,2013-04-24 03:54:00,
2013-04-23 23:56:00,41.5,34.9,29.38,West,270,0.0,0.0,77,0.00,,---,0.00,VWS V13.01,2013-04-24 03:56:00,
2013-04-23 23:57:00,41.5,34.9,29.38,WNW,292,3.1,3.1,77,0.00,,---,0.00,VWS V13.01,2013-04-24 03:57:00,
2013-04-23 23:59:00,41.5,34.9,29.38,ESE,112,0.0,3.1,77,0.00,,---,0.00,VWS V13.01,2013-04-24 03:59:00,